<?xml version="1.0" encoding="UTF-8" standalone="no" ?>
<gpx xmlns="http://www.topografix.com/GPX/1/1" xmlns:xsi="http://www.w3.org/2001/XMLSchema-instance" xsi:schemaLocation="http://www.topografix.com/GPX/1/1 http://www.topografix.com/GPX/1/1/gpx.xsd" version="1.1" creator="VisuGPX - https://www.visugpx.com">
  <metadata>
    <name>Cabanon des Marquis</name>
    <desc><![CDATA[Rando facile,beau point de vue sur le golfe de La Ciotat.]]></desc>
  </metadata>
  <trk>
    <name><![CDATA[Cabanon des Marquis_3]]></name>
    <trkseg>
      <trkpt lat="43.24252" lon="5.62968">
        <ele>483.5</ele>
        <time>2014-10-08T07:37:44Z</time>
      </trkpt>
      <trkpt lat="43.24252" lon="5.6297">
        <ele>486.3</ele>
        <time>2014-10-08T07:37:44Z</time>
      </trkpt>
      <trkpt lat="43.24259" lon="5.62966">
        <ele>480</ele>
        <time>2014-10-08T07:37:51Z</time>
      </trkpt>
      <trkpt lat="43.24257" lon="5.62961">
        <ele>475.2</ele>
        <time>2014-10-08T07:37:55Z</time>
      </trkpt>
      <trkpt lat="43.24259" lon="5.62956">
        <ele>475.3</ele>
        <time>2014-10-08T07:37:58Z</time>
      </trkpt>
      <trkpt lat="43.24261" lon="5.62952">
        <ele>473.7</ele>
        <time>2014-10-08T07:38:00Z</time>
      </trkpt>
      <trkpt lat="43.24263" lon="5.62948">
        <ele>473.3</ele>
        <time>2014-10-08T07:38:03Z</time>
      </trkpt>
      <trkpt lat="43.24263" lon="5.62942">
        <ele>471.5</ele>
        <time>2014-10-08T07:38:06Z</time>
      </trkpt>
      <trkpt lat="43.24264" lon="5.62937">
        <ele>469.1</ele>
        <time>2014-10-08T07:38:09Z</time>
      </trkpt>
      <trkpt lat="43.24264" lon="5.62932">
        <ele>466.3</ele>
        <time>2014-10-08T07:38:12Z</time>
      </trkpt>
      <trkpt lat="43.24264" lon="5.62926">
        <ele>465.7</ele>
        <time>2014-10-08T07:38:17Z</time>
      </trkpt>
      <trkpt lat="43.24265" lon="5.62921">
        <ele>463.7</ele>
        <time>2014-10-08T07:38:20Z</time>
      </trkpt>
      <trkpt lat="43.24266" lon="5.62916">
        <ele>464.7</ele>
        <time>2014-10-08T07:38:23Z</time>
      </trkpt>
      <trkpt lat="43.24269" lon="5.62911">
        <ele>468</ele>
        <time>2014-10-08T07:38:27Z</time>
      </trkpt>
      <trkpt lat="43.24268" lon="5.62905">
        <ele>466.7</ele>
        <time>2014-10-08T07:38:30Z</time>
      </trkpt>
      <trkpt lat="43.24269" lon="5.629">
        <ele>465.5</ele>
        <time>2014-10-08T07:38:33Z</time>
      </trkpt>
      <trkpt lat="43.2427" lon="5.62895">
        <ele>463.7</ele>
        <time>2014-10-08T07:38:36Z</time>
      </trkpt>
      <trkpt lat="43.24272" lon="5.6289">
        <ele>463.1</ele>
        <time>2014-10-08T07:38:39Z</time>
      </trkpt>
      <trkpt lat="43.24272" lon="5.62884">
        <ele>461.5</ele>
        <time>2014-10-08T07:38:43Z</time>
      </trkpt>
      <trkpt lat="43.24271" lon="5.62879">
        <ele>459</ele>
        <time>2014-10-08T07:38:46Z</time>
      </trkpt>
      <trkpt lat="43.24273" lon="5.62877">
        <ele>459</ele>
        <time>2014-10-08T07:38:47Z</time>
      </trkpt>
      <trkpt lat="43.24276" lon="5.62871">
        <ele>459</ele>
        <time>2014-10-08T07:38:51Z</time>
      </trkpt>
      <trkpt lat="43.24276" lon="5.62866">
        <ele>459.7</ele>
        <time>2014-10-08T07:38:54Z</time>
      </trkpt>
      <trkpt lat="43.24278" lon="5.62861">
        <ele>461.2</ele>
        <time>2014-10-08T07:38:57Z</time>
      </trkpt>
      <trkpt lat="43.24279" lon="5.62856">
        <ele>460.7</ele>
        <time>2014-10-08T07:39:01Z</time>
      </trkpt>
      <trkpt lat="43.24281" lon="5.62852">
        <ele>461.5</ele>
        <time>2014-10-08T07:39:04Z</time>
      </trkpt>
      <trkpt lat="43.24283" lon="5.62847">
        <ele>461.3</ele>
        <time>2014-10-08T07:39:06Z</time>
      </trkpt>
      <trkpt lat="43.24283" lon="5.62842">
        <ele>460.3</ele>
        <time>2014-10-08T07:39:09Z</time>
      </trkpt>
      <trkpt lat="43.24284" lon="5.62837">
        <ele>459.1</ele>
        <time>2014-10-08T07:39:11Z</time>
      </trkpt>
      <trkpt lat="43.24284" lon="5.62832">
        <ele>458.2</ele>
        <time>2014-10-08T07:39:14Z</time>
      </trkpt>
      <trkpt lat="43.24284" lon="5.62826">
        <ele>455.7</ele>
        <time>2014-10-08T07:39:16Z</time>
      </trkpt>
      <trkpt lat="43.24285" lon="5.62822">
        <ele>455.8</ele>
        <time>2014-10-08T07:39:18Z</time>
      </trkpt>
      <trkpt lat="43.24285" lon="5.62817">
        <ele>454.2</ele>
        <time>2014-10-08T07:39:20Z</time>
      </trkpt>
      <trkpt lat="43.24284" lon="5.62812">
        <ele>454.7</ele>
        <time>2014-10-08T07:39:24Z</time>
      </trkpt>
      <trkpt lat="43.24283" lon="5.62807">
        <ele>456.7</ele>
        <time>2014-10-08T07:39:28Z</time>
      </trkpt>
      <trkpt lat="43.24283" lon="5.62801">
        <ele>455.8</ele>
        <time>2014-10-08T07:39:31Z</time>
      </trkpt>
      <trkpt lat="43.24281" lon="5.62797">
        <ele>455.3</ele>
        <time>2014-10-08T07:39:35Z</time>
      </trkpt>
      <trkpt lat="43.24278" lon="5.62792">
        <ele>453.7</ele>
        <time>2014-10-08T07:39:38Z</time>
      </trkpt>
      <trkpt lat="43.24275" lon="5.62788">
        <ele>454.7</ele>
        <time>2014-10-08T07:39:42Z</time>
      </trkpt>
      <trkpt lat="43.24272" lon="5.62785">
        <ele>455.1</ele>
        <time>2014-10-08T07:39:46Z</time>
      </trkpt>
      <trkpt lat="43.2427" lon="5.62782">
        <ele>454.3</ele>
        <time>2014-10-08T07:39:48Z</time>
      </trkpt>
      <trkpt lat="43.24268" lon="5.6278">
        <ele>454.1</ele>
        <time>2014-10-08T07:39:49Z</time>
      </trkpt>
      <trkpt lat="43.24264" lon="5.62774">
        <ele>452.8</ele>
        <time>2014-10-08T07:39:54Z</time>
      </trkpt>
      <trkpt lat="43.24261" lon="5.62771">
        <ele>454</ele>
        <time>2014-10-08T07:39:57Z</time>
      </trkpt>
      <trkpt lat="43.24258" lon="5.62767">
        <ele>453.6</ele>
        <time>2014-10-08T07:40:00Z</time>
      </trkpt>
      <trkpt lat="43.24256" lon="5.62763">
        <ele>452.5</ele>
        <time>2014-10-08T07:40:03Z</time>
      </trkpt>
      <trkpt lat="43.24253" lon="5.6276">
        <ele>454.1</ele>
        <time>2014-10-08T07:40:06Z</time>
      </trkpt>
      <trkpt lat="43.24251" lon="5.62755">
        <ele>454</ele>
        <time>2014-10-08T07:40:09Z</time>
      </trkpt>
      <trkpt lat="43.24248" lon="5.6275">
        <ele>454</ele>
        <time>2014-10-08T07:40:12Z</time>
      </trkpt>
      <trkpt lat="43.24246" lon="5.62746">
        <ele>453.7</ele>
        <time>2014-10-08T07:40:15Z</time>
      </trkpt>
      <trkpt lat="43.24243" lon="5.62743">
        <ele>456.2</ele>
        <time>2014-10-08T07:40:18Z</time>
      </trkpt>
      <trkpt lat="43.2424" lon="5.62738">
        <ele>455.7</ele>
        <time>2014-10-08T07:40:22Z</time>
      </trkpt>
      <trkpt lat="43.24239" lon="5.62734">
        <ele>455.5</ele>
        <time>2014-10-08T07:40:25Z</time>
      </trkpt>
      <trkpt lat="43.24237" lon="5.62732">
        <ele>456</ele>
        <time>2014-10-08T07:40:27Z</time>
      </trkpt>
      <trkpt lat="43.24235" lon="5.62728">
        <ele>456</ele>
        <time>2014-10-08T07:40:29Z</time>
      </trkpt>
      <trkpt lat="43.24232" lon="5.62723">
        <ele>456.2</ele>
        <time>2014-10-08T07:40:32Z</time>
      </trkpt>
      <trkpt lat="43.24228" lon="5.62721">
        <ele>461.6</ele>
        <time>2014-10-08T07:40:36Z</time>
      </trkpt>
      <trkpt lat="43.24225" lon="5.62717">
        <ele>462.8</ele>
        <time>2014-10-08T07:40:40Z</time>
      </trkpt>
      <trkpt lat="43.24223" lon="5.62713">
        <ele>463.5</ele>
        <time>2014-10-08T07:40:43Z</time>
      </trkpt>
      <trkpt lat="43.2422" lon="5.62708">
        <ele>461.6</ele>
        <time>2014-10-08T07:40:47Z</time>
      </trkpt>
      <trkpt lat="43.24219" lon="5.62703">
        <ele>459.2</ele>
        <time>2014-10-08T07:40:50Z</time>
      </trkpt>
      <trkpt lat="43.24218" lon="5.62701">
        <ele>458.2</ele>
        <time>2014-10-08T07:40:51Z</time>
      </trkpt>
      <trkpt lat="43.24213" lon="5.62695">
        <ele>457.8</ele>
        <time>2014-10-08T07:40:56Z</time>
      </trkpt>
      <trkpt lat="43.24211" lon="5.62691">
        <ele>456.7</ele>
        <time>2014-10-08T07:40:59Z</time>
      </trkpt>
      <trkpt lat="43.24208" lon="5.62688">
        <ele>456</ele>
        <time>2014-10-08T07:41:02Z</time>
      </trkpt>
      <trkpt lat="43.24206" lon="5.62684">
        <ele>457.3</ele>
        <time>2014-10-08T07:41:05Z</time>
      </trkpt>
      <trkpt lat="43.24203" lon="5.62681">
        <ele>458.2</ele>
        <time>2014-10-08T07:41:08Z</time>
      </trkpt>
      <trkpt lat="43.242" lon="5.62677">
        <ele>458.7</ele>
        <time>2014-10-08T07:41:11Z</time>
      </trkpt>
      <trkpt lat="43.24197" lon="5.62675">
        <ele>461.6</ele>
        <time>2014-10-08T07:41:15Z</time>
      </trkpt>
      <trkpt lat="43.24193" lon="5.62671">
        <ele>464</ele>
        <time>2014-10-08T07:41:18Z</time>
      </trkpt>
      <trkpt lat="43.24191" lon="5.62667">
        <ele>465.2</ele>
        <time>2014-10-08T07:41:22Z</time>
      </trkpt>
      <trkpt lat="43.24189" lon="5.62663">
        <ele>465.2</ele>
        <time>2014-10-08T07:41:25Z</time>
      </trkpt>
      <trkpt lat="43.24188" lon="5.62658">
        <ele>462.1</ele>
        <time>2014-10-08T07:41:28Z</time>
      </trkpt>
      <trkpt lat="43.24187" lon="5.62653">
        <ele>458.8</ele>
        <time>2014-10-08T07:41:31Z</time>
      </trkpt>
      <trkpt lat="43.24186" lon="5.62648">
        <ele>456.6</ele>
        <time>2014-10-08T07:41:34Z</time>
      </trkpt>
      <trkpt lat="43.24184" lon="5.62642">
        <ele>453.1</ele>
        <time>2014-10-08T07:41:37Z</time>
      </trkpt>
      <trkpt lat="43.24183" lon="5.62638">
        <ele>451.2</ele>
        <time>2014-10-08T07:41:39Z</time>
      </trkpt>
      <trkpt lat="43.24181" lon="5.62634">
        <ele>448.7</ele>
        <time>2014-10-08T07:41:41Z</time>
      </trkpt>
      <trkpt lat="43.2418" lon="5.6263">
        <ele>448.5</ele>
        <time>2014-10-08T07:41:44Z</time>
      </trkpt>
      <trkpt lat="43.24178" lon="5.62625">
        <ele>446.7</ele>
        <time>2014-10-08T07:41:47Z</time>
      </trkpt>
      <trkpt lat="43.24177" lon="5.6262">
        <ele>444.1</ele>
        <time>2014-10-08T07:41:50Z</time>
      </trkpt>
      <trkpt lat="43.24174" lon="5.62615">
        <ele>445.2</ele>
        <time>2014-10-08T07:41:54Z</time>
      </trkpt>
      <trkpt lat="43.24174" lon="5.62614">
        <ele>445.8</ele>
        <time>2014-10-08T07:41:55Z</time>
      </trkpt>
      <trkpt lat="43.24172" lon="5.62605">
        <ele>442.8</ele>
        <time>2014-10-08T07:42:00Z</time>
      </trkpt>
      <trkpt lat="43.24172" lon="5.626">
        <ele>441.3</ele>
        <time>2014-10-08T07:42:02Z</time>
      </trkpt>
      <trkpt lat="43.24171" lon="5.62595">
        <ele>441.7</ele>
        <time>2014-10-08T07:42:05Z</time>
      </trkpt>
      <trkpt lat="43.24172" lon="5.62591">
        <ele>441.2</ele>
        <time>2014-10-08T07:42:08Z</time>
      </trkpt>
      <trkpt lat="43.24173" lon="5.62585">
        <ele>440.7</ele>
        <time>2014-10-08T07:42:11Z</time>
      </trkpt>
      <trkpt lat="43.24173" lon="5.62579">
        <ele>442.5</ele>
        <time>2014-10-08T07:42:16Z</time>
      </trkpt>
      <trkpt lat="43.24172" lon="5.62574">
        <ele>442.7</ele>
        <time>2014-10-08T07:42:19Z</time>
      </trkpt>
      <trkpt lat="43.24172" lon="5.62568">
        <ele>443.3</ele>
        <time>2014-10-08T07:42:22Z</time>
      </trkpt>
      <trkpt lat="43.24172" lon="5.62564">
        <ele>447.7</ele>
        <time>2014-10-08T07:42:25Z</time>
      </trkpt>
      <trkpt lat="43.24169" lon="5.6256">
        <ele>452</ele>
        <time>2014-10-08T07:42:28Z</time>
      </trkpt>
      <trkpt lat="43.24167" lon="5.62555">
        <ele>454.3</ele>
        <time>2014-10-08T07:42:31Z</time>
      </trkpt>
      <trkpt lat="43.24166" lon="5.6255">
        <ele>459</ele>
        <time>2014-10-08T07:42:34Z</time>
      </trkpt>
      <trkpt lat="43.24163" lon="5.62546">
        <ele>465.7</ele>
        <time>2014-10-08T07:42:37Z</time>
      </trkpt>
      <trkpt lat="43.2416" lon="5.62542">
        <ele>475.6</ele>
        <time>2014-10-08T07:42:40Z</time>
      </trkpt>
      <trkpt lat="43.24157" lon="5.62538">
        <ele>487.1</ele>
        <time>2014-10-08T07:42:44Z</time>
      </trkpt>
      <trkpt lat="43.24155" lon="5.62533">
        <ele>490</ele>
        <time>2014-10-08T07:42:48Z</time>
      </trkpt>
      <trkpt lat="43.24154" lon="5.62529">
        <ele>490</ele>
        <time>2014-10-08T07:42:51Z</time>
      </trkpt>
      <trkpt lat="43.24155" lon="5.62523">
        <ele>482.7</ele>
        <time>2014-10-08T07:42:57Z</time>
      </trkpt>
      <trkpt lat="43.24156" lon="5.6252">
        <ele>478.2</ele>
        <time>2014-10-08T07:42:58Z</time>
      </trkpt>
      <trkpt lat="43.24157" lon="5.62517">
        <ele>474.2</ele>
        <time>2014-10-08T07:42:59Z</time>
      </trkpt>
      <trkpt lat="43.24159" lon="5.62514">
        <ele>471</ele>
        <time>2014-10-08T07:43:00Z</time>
      </trkpt>
      <trkpt lat="43.2416" lon="5.62511">
        <ele>467.5</ele>
        <time>2014-10-08T07:43:01Z</time>
      </trkpt>
      <trkpt lat="43.24161" lon="5.62508">
        <ele>463.8</ele>
        <time>2014-10-08T07:43:02Z</time>
      </trkpt>
      <trkpt lat="43.24162" lon="5.62504">
        <ele>462.5</ele>
        <time>2014-10-08T07:43:04Z</time>
      </trkpt>
      <trkpt lat="43.24162" lon="5.625">
        <ele>459.8</ele>
        <time>2014-10-08T07:43:05Z</time>
      </trkpt>
      <trkpt lat="43.24163" lon="5.62497">
        <ele>457.6</ele>
        <time>2014-10-08T07:43:06Z</time>
      </trkpt>
      <trkpt lat="43.24164" lon="5.62492">
        <ele>453.7</ele>
        <time>2014-10-08T07:43:08Z</time>
      </trkpt>
      <trkpt lat="43.24165" lon="5.62488">
        <ele>450.2</ele>
        <time>2014-10-08T07:43:10Z</time>
      </trkpt>
      <trkpt lat="43.24167" lon="5.62483">
        <ele>447.2</ele>
        <time>2014-10-08T07:43:14Z</time>
      </trkpt>
      <trkpt lat="43.24169" lon="5.62478">
        <ele>446</ele>
        <time>2014-10-08T07:43:17Z</time>
      </trkpt>
      <trkpt lat="43.2417" lon="5.62473">
        <ele>445.2</ele>
        <time>2014-10-08T07:43:20Z</time>
      </trkpt>
      <trkpt lat="43.24172" lon="5.62469">
        <ele>444.8</ele>
        <time>2014-10-08T07:43:23Z</time>
      </trkpt>
      <trkpt lat="43.24175" lon="5.62464">
        <ele>444.2</ele>
        <time>2014-10-08T07:43:27Z</time>
      </trkpt>
      <trkpt lat="43.24176" lon="5.62459">
        <ele>444.3</ele>
        <time>2014-10-08T07:43:30Z</time>
      </trkpt>
      <trkpt lat="43.24175" lon="5.62453">
        <ele>443.1</ele>
        <time>2014-10-08T07:43:33Z</time>
      </trkpt>
      <trkpt lat="43.24175" lon="5.62448">
        <ele>441.7</ele>
        <time>2014-10-08T07:43:35Z</time>
      </trkpt>
      <trkpt lat="43.24175" lon="5.62442">
        <ele>441.2</ele>
        <time>2014-10-08T07:43:38Z</time>
      </trkpt>
      <trkpt lat="43.24176" lon="5.62437">
        <ele>440.7</ele>
        <time>2014-10-08T07:43:42Z</time>
      </trkpt>
      <trkpt lat="43.24177" lon="5.62431">
        <ele>439.2</ele>
        <time>2014-10-08T07:43:45Z</time>
      </trkpt>
      <trkpt lat="43.24178" lon="5.62426">
        <ele>439.5</ele>
        <time>2014-10-08T07:43:49Z</time>
      </trkpt>
      <trkpt lat="43.24179" lon="5.62421">
        <ele>439.7</ele>
        <time>2014-10-08T07:43:54Z</time>
      </trkpt>
      <trkpt lat="43.24178" lon="5.62416">
        <ele>439.2</ele>
        <time>2014-10-08T07:43:58Z</time>
      </trkpt>
      <trkpt lat="43.24178" lon="5.62414">
        <ele>438.6</ele>
        <time>2014-10-08T07:43:59Z</time>
      </trkpt>
      <trkpt lat="43.2418" lon="5.62408">
        <ele>440</ele>
        <time>2014-10-08T07:44:02Z</time>
      </trkpt>
      <trkpt lat="43.24181" lon="5.62403">
        <ele>439.2</ele>
        <time>2014-10-08T07:44:04Z</time>
      </trkpt>
      <trkpt lat="43.24181" lon="5.62397">
        <ele>440.7</ele>
        <time>2014-10-08T07:44:08Z</time>
      </trkpt>
      <trkpt lat="43.24182" lon="5.62393">
        <ele>444</ele>
        <time>2014-10-08T07:44:12Z</time>
      </trkpt>
      <trkpt lat="43.24183" lon="5.62387">
        <ele>446</ele>
        <time>2014-10-08T07:44:17Z</time>
      </trkpt>
      <trkpt lat="43.24185" lon="5.62383">
        <ele>448.2</ele>
        <time>2014-10-08T07:44:21Z</time>
      </trkpt>
      <trkpt lat="43.24186" lon="5.62378">
        <ele>451.3</ele>
        <time>2014-10-08T07:44:27Z</time>
      </trkpt>
      <trkpt lat="43.24186" lon="5.62372">
        <ele>450.2</ele>
        <time>2014-10-08T07:44:30Z</time>
      </trkpt>
      <trkpt lat="43.24188" lon="5.62367">
        <ele>452.6</ele>
        <time>2014-10-08T07:44:34Z</time>
      </trkpt>
      <trkpt lat="43.24189" lon="5.62361">
        <ele>451.7</ele>
        <time>2014-10-08T07:44:37Z</time>
      </trkpt>
      <trkpt lat="43.24189" lon="5.62356">
        <ele>451.2</ele>
        <time>2014-10-08T07:44:41Z</time>
      </trkpt>
      <trkpt lat="43.24188" lon="5.62351">
        <ele>449.8</ele>
        <time>2014-10-08T07:44:44Z</time>
      </trkpt>
      <trkpt lat="43.24188" lon="5.62346">
        <ele>449</ele>
        <time>2014-10-08T07:44:47Z</time>
      </trkpt>
      <trkpt lat="43.24187" lon="5.62342">
        <ele>448.3</ele>
        <time>2014-10-08T07:44:50Z</time>
      </trkpt>
      <trkpt lat="43.24187" lon="5.62336">
        <ele>447</ele>
        <time>2014-10-08T07:44:53Z</time>
      </trkpt>
      <trkpt lat="43.24186" lon="5.6233">
        <ele>447.2</ele>
        <time>2014-10-08T07:44:57Z</time>
      </trkpt>
      <trkpt lat="43.24186" lon="5.62324">
        <ele>448.7</ele>
        <time>2014-10-08T07:45:02Z</time>
      </trkpt>
      <trkpt lat="43.24186" lon="5.62323">
        <ele>449.2</ele>
        <time>2014-10-08T07:45:03Z</time>
      </trkpt>
      <trkpt lat="43.24184" lon="5.62314">
        <ele>451.1</ele>
        <time>2014-10-08T07:45:10Z</time>
      </trkpt>
      <trkpt lat="43.24185" lon="5.62309">
        <ele>452.7</ele>
        <time>2014-10-08T07:45:14Z</time>
      </trkpt>
      <trkpt lat="43.24185" lon="5.62304">
        <ele>454.1</ele>
        <time>2014-10-08T07:45:18Z</time>
      </trkpt>
      <trkpt lat="43.24187" lon="5.62299">
        <ele>455.7</ele>
        <time>2014-10-08T07:45:22Z</time>
      </trkpt>
      <trkpt lat="43.24189" lon="5.62294">
        <ele>456.5</ele>
        <time>2014-10-08T07:45:25Z</time>
      </trkpt>
      <trkpt lat="43.2419" lon="5.62289">
        <ele>456.6</ele>
        <time>2014-10-08T07:45:29Z</time>
      </trkpt>
      <trkpt lat="43.24192" lon="5.62285">
        <ele>456.2</ele>
        <time>2014-10-08T07:45:32Z</time>
      </trkpt>
      <trkpt lat="43.24194" lon="5.6228">
        <ele>456.2</ele>
        <time>2014-10-08T07:45:36Z</time>
      </trkpt>
      <trkpt lat="43.24196" lon="5.62276">
        <ele>456.7</ele>
        <time>2014-10-08T07:45:39Z</time>
      </trkpt>
      <trkpt lat="43.24197" lon="5.62271">
        <ele>457.6</ele>
        <time>2014-10-08T07:45:43Z</time>
      </trkpt>
      <trkpt lat="43.24198" lon="5.62266">
        <ele>457.7</ele>
        <time>2014-10-08T07:45:47Z</time>
      </trkpt>
      <trkpt lat="43.24199" lon="5.6226">
        <ele>456.3</ele>
        <time>2014-10-08T07:45:51Z</time>
      </trkpt>
      <trkpt lat="43.24201" lon="5.62254">
        <ele>456.5</ele>
        <time>2014-10-08T07:45:55Z</time>
      </trkpt>
      <trkpt lat="43.24203" lon="5.6225">
        <ele>457.6</ele>
        <time>2014-10-08T07:45:59Z</time>
      </trkpt>
      <trkpt lat="43.24205" lon="5.62245">
        <ele>459.2</ele>
        <time>2014-10-08T07:46:04Z</time>
      </trkpt>
      <trkpt lat="43.24205" lon="5.62244">
        <ele>459</ele>
        <time>2014-10-08T07:46:05Z</time>
      </trkpt>
      <trkpt lat="43.24209" lon="5.62235">
        <ele>459.2</ele>
        <time>2014-10-08T07:46:12Z</time>
      </trkpt>
      <trkpt lat="43.24211" lon="5.62231">
        <ele>458.7</ele>
        <time>2014-10-08T07:46:15Z</time>
      </trkpt>
      <trkpt lat="43.24213" lon="5.62226">
        <ele>458.7</ele>
        <time>2014-10-08T07:46:18Z</time>
      </trkpt>
      <trkpt lat="43.24215" lon="5.62222">
        <ele>459.3</ele>
        <time>2014-10-08T07:46:22Z</time>
      </trkpt>
      <trkpt lat="43.24218" lon="5.62218">
        <ele>461.2</ele>
        <time>2014-10-08T07:46:26Z</time>
      </trkpt>
      <trkpt lat="43.24222" lon="5.62215">
        <ele>464.1</ele>
        <time>2014-10-08T07:46:31Z</time>
      </trkpt>
      <trkpt lat="43.24224" lon="5.62212">
        <ele>464.1</ele>
        <time>2014-10-08T07:46:34Z</time>
      </trkpt>
      <trkpt lat="43.24227" lon="5.62208">
        <ele>464.2</ele>
        <time>2014-10-08T07:46:38Z</time>
      </trkpt>
      <trkpt lat="43.2423" lon="5.62204">
        <ele>464.8</ele>
        <time>2014-10-08T07:46:41Z</time>
      </trkpt>
      <trkpt lat="43.24234" lon="5.62201">
        <ele>466.1</ele>
        <time>2014-10-08T07:46:45Z</time>
      </trkpt>
      <trkpt lat="43.24235" lon="5.62196">
        <ele>466.5</ele>
        <time>2014-10-08T07:46:48Z</time>
      </trkpt>
      <trkpt lat="43.24237" lon="5.62192">
        <ele>466.8</ele>
        <time>2014-10-08T07:46:52Z</time>
      </trkpt>
      <trkpt lat="43.24239" lon="5.62188">
        <ele>466.2</ele>
        <time>2014-10-08T07:46:54Z</time>
      </trkpt>
      <trkpt lat="43.24241" lon="5.62184">
        <ele>466.2</ele>
        <time>2014-10-08T07:46:57Z</time>
      </trkpt>
      <trkpt lat="43.24243" lon="5.62179">
        <ele>467.2</ele>
        <time>2014-10-08T07:47:01Z</time>
      </trkpt>
      <trkpt lat="43.24244" lon="5.62174">
        <ele>468.1</ele>
        <time>2014-10-08T07:47:05Z</time>
      </trkpt>
      <trkpt lat="43.24244" lon="5.62172">
        <ele>468.2</ele>
        <time>2014-10-08T07:47:06Z</time>
      </trkpt>
      <trkpt lat="43.24246" lon="5.62163">
        <ele>469.2</ele>
        <time>2014-10-08T07:47:13Z</time>
      </trkpt>
      <trkpt lat="43.24247" lon="5.62158">
        <ele>469.2</ele>
        <time>2014-10-08T07:47:17Z</time>
      </trkpt>
      <trkpt lat="43.24248" lon="5.62152">
        <ele>469.6</ele>
        <time>2014-10-08T07:47:21Z</time>
      </trkpt>
      <trkpt lat="43.24249" lon="5.62147">
        <ele>469.7</ele>
        <time>2014-10-08T07:47:25Z</time>
      </trkpt>
      <trkpt lat="43.2425" lon="5.62142">
        <ele>469.8</ele>
        <time>2014-10-08T07:47:29Z</time>
      </trkpt>
      <trkpt lat="43.24252" lon="5.62137">
        <ele>470.2</ele>
        <time>2014-10-08T07:47:33Z</time>
      </trkpt>
      <trkpt lat="43.24252" lon="5.62131">
        <ele>470.2</ele>
        <time>2014-10-08T07:47:37Z</time>
      </trkpt>
      <trkpt lat="43.24253" lon="5.62126">
        <ele>470.6</ele>
        <time>2014-10-08T07:47:41Z</time>
      </trkpt>
      <trkpt lat="43.24254" lon="5.6212">
        <ele>470.6</ele>
        <time>2014-10-08T07:47:45Z</time>
      </trkpt>
      <trkpt lat="43.24255" lon="5.62115">
        <ele>470.3</ele>
        <time>2014-10-08T07:47:49Z</time>
      </trkpt>
      <trkpt lat="43.24257" lon="5.62109">
        <ele>470</ele>
        <time>2014-10-08T07:47:54Z</time>
      </trkpt>
      <trkpt lat="43.24257" lon="5.62104">
        <ele>469.1</ele>
        <time>2014-10-08T07:48:04Z</time>
      </trkpt>
      <trkpt lat="43.24257" lon="5.62098">
        <ele>470.1</ele>
        <time>2014-10-08T07:48:19Z</time>
      </trkpt>
      <trkpt lat="43.24257" lon="5.62098">
        <ele>470.2</ele>
        <time>2014-10-08T07:48:20Z</time>
      </trkpt>
      <trkpt lat="43.24258" lon="5.62091">
        <ele>476.1</ele>
        <time>2014-10-08T07:56:11Z</time>
      </trkpt>
      <trkpt lat="43.24259" lon="5.62091">
        <ele>476.7</ele>
        <time>2014-10-08T07:56:12Z</time>
      </trkpt>
      <trkpt lat="43.24263" lon="5.62081">
        <ele>474.6</ele>
        <time>2014-10-08T07:56:32Z</time>
      </trkpt>
      <trkpt lat="43.24264" lon="5.62075">
        <ele>472.7</ele>
        <time>2014-10-08T07:56:38Z</time>
      </trkpt>
      <trkpt lat="43.24265" lon="5.6207">
        <ele>472.3</ele>
        <time>2014-10-08T07:56:46Z</time>
      </trkpt>
      <trkpt lat="43.24267" lon="5.62065">
        <ele>475.2</ele>
        <time>2014-10-08T07:56:59Z</time>
      </trkpt>
      <trkpt lat="43.2427" lon="5.62061">
        <ele>474.2</ele>
        <time>2014-10-08T07:57:05Z</time>
      </trkpt>
      <trkpt lat="43.24272" lon="5.62056">
        <ele>474.2</ele>
        <time>2014-10-08T07:57:09Z</time>
      </trkpt>
      <trkpt lat="43.24273" lon="5.62051">
        <ele>474.1</ele>
        <time>2014-10-08T07:57:13Z</time>
      </trkpt>
      <trkpt lat="43.24274" lon="5.6205">
        <ele>473.8</ele>
        <time>2014-10-08T07:57:14Z</time>
      </trkpt>
      <trkpt lat="43.24275" lon="5.62039">
        <ele>472.7</ele>
        <time>2014-10-08T07:57:21Z</time>
      </trkpt>
      <trkpt lat="43.24276" lon="5.62034">
        <ele>472.1</ele>
        <time>2014-10-08T07:57:25Z</time>
      </trkpt>
      <trkpt lat="43.24277" lon="5.6203">
        <ele>472.1</ele>
        <time>2014-10-08T07:57:28Z</time>
      </trkpt>
      <trkpt lat="43.24279" lon="5.62025">
        <ele>472</ele>
        <time>2014-10-08T07:57:31Z</time>
      </trkpt>
      <trkpt lat="43.24281" lon="5.6202">
        <ele>472.6</ele>
        <time>2014-10-08T07:57:34Z</time>
      </trkpt>
      <trkpt lat="43.24283" lon="5.62016">
        <ele>472.7</ele>
        <time>2014-10-08T07:57:37Z</time>
      </trkpt>
      <trkpt lat="43.24285" lon="5.62011">
        <ele>472.7</ele>
        <time>2014-10-08T07:57:40Z</time>
      </trkpt>
      <trkpt lat="43.24286" lon="5.62006">
        <ele>472.3</ele>
        <time>2014-10-08T07:57:43Z</time>
      </trkpt>
      <trkpt lat="43.24287" lon="5.62002">
        <ele>472.1</ele>
        <time>2014-10-08T07:57:46Z</time>
      </trkpt>
      <trkpt lat="43.24289" lon="5.61997">
        <ele>472</ele>
        <time>2014-10-08T07:57:49Z</time>
      </trkpt>
      <trkpt lat="43.2429" lon="5.61992">
        <ele>472.5</ele>
        <time>2014-10-08T07:57:52Z</time>
      </trkpt>
      <trkpt lat="43.24291" lon="5.61988">
        <ele>472.6</ele>
        <time>2014-10-08T07:57:55Z</time>
      </trkpt>
      <trkpt lat="43.24292" lon="5.61984">
        <ele>472.6</ele>
        <time>2014-10-08T07:57:58Z</time>
      </trkpt>
      <trkpt lat="43.24293" lon="5.61979">
        <ele>472.2</ele>
        <time>2014-10-08T07:58:01Z</time>
      </trkpt>
      <trkpt lat="43.24295" lon="5.61975">
        <ele>472.2</ele>
        <time>2014-10-08T07:58:04Z</time>
      </trkpt>
      <trkpt lat="43.24296" lon="5.61969">
        <ele>472</ele>
        <time>2014-10-08T07:58:08Z</time>
      </trkpt>
      <trkpt lat="43.24297" lon="5.61965">
        <ele>472.2</ele>
        <time>2014-10-08T07:58:11Z</time>
      </trkpt>
      <trkpt lat="43.24298" lon="5.6196">
        <ele>472.2</ele>
        <time>2014-10-08T07:58:14Z</time>
      </trkpt>
      <trkpt lat="43.24299" lon="5.61958">
        <ele>472.6</ele>
        <time>2014-10-08T07:58:15Z</time>
      </trkpt>
      <trkpt lat="43.24301" lon="5.6195">
        <ele>472.6</ele>
        <time>2014-10-08T07:58:21Z</time>
      </trkpt>
      <trkpt lat="43.24303" lon="5.61945">
        <ele>473.2</ele>
        <time>2014-10-08T07:58:24Z</time>
      </trkpt>
      <trkpt lat="43.24304" lon="5.61939">
        <ele>473.1</ele>
        <time>2014-10-08T07:58:28Z</time>
      </trkpt>
      <trkpt lat="43.24305" lon="5.61934">
        <ele>473.6</ele>
        <time>2014-10-08T07:58:32Z</time>
      </trkpt>
      <trkpt lat="43.24306" lon="5.61928">
        <ele>473.3</ele>
        <time>2014-10-08T07:58:36Z</time>
      </trkpt>
      <trkpt lat="43.24307" lon="5.61924">
        <ele>474.2</ele>
        <time>2014-10-08T07:58:39Z</time>
      </trkpt>
      <trkpt lat="43.24308" lon="5.61918">
        <ele>473.8</ele>
        <time>2014-10-08T07:58:43Z</time>
      </trkpt>
      <trkpt lat="43.24309" lon="5.61914">
        <ele>474.1</ele>
        <time>2014-10-08T07:58:46Z</time>
      </trkpt>
      <trkpt lat="43.2431" lon="5.61908">
        <ele>474.6</ele>
        <time>2014-10-08T07:58:50Z</time>
      </trkpt>
      <trkpt lat="43.24311" lon="5.61902">
        <ele>474.7</ele>
        <time>2014-10-08T07:58:54Z</time>
      </trkpt>
      <trkpt lat="43.24312" lon="5.61898">
        <ele>474.7</ele>
        <time>2014-10-08T07:58:57Z</time>
      </trkpt>
      <trkpt lat="43.24312" lon="5.61893">
        <ele>474.8</ele>
        <time>2014-10-08T07:59:00Z</time>
      </trkpt>
      <trkpt lat="43.24314" lon="5.61888">
        <ele>474.8</ele>
        <time>2014-10-08T07:59:04Z</time>
      </trkpt>
      <trkpt lat="43.24316" lon="5.61883">
        <ele>474.8</ele>
        <time>2014-10-08T07:59:08Z</time>
      </trkpt>
      <trkpt lat="43.24319" lon="5.6188">
        <ele>475</ele>
        <time>2014-10-08T07:59:11Z</time>
      </trkpt>
      <trkpt lat="43.24321" lon="5.61875">
        <ele>475.1</ele>
        <time>2014-10-08T07:59:15Z</time>
      </trkpt>
      <trkpt lat="43.24321" lon="5.61874">
        <ele>475</ele>
        <time>2014-10-08T07:59:16Z</time>
      </trkpt>
      <trkpt lat="43.24326" lon="5.61865">
        <ele>475.8</ele>
        <time>2014-10-08T07:59:25Z</time>
      </trkpt>
      <trkpt lat="43.24329" lon="5.61861">
        <ele>475.6</ele>
        <time>2014-10-08T07:59:31Z</time>
      </trkpt>
      <trkpt lat="43.24333" lon="5.61858">
        <ele>475.8</ele>
        <time>2014-10-08T07:59:37Z</time>
      </trkpt>
      <trkpt lat="43.24337" lon="5.61858">
        <ele>476.2</ele>
        <time>2014-10-08T07:59:41Z</time>
      </trkpt>
      <trkpt lat="43.2434" lon="5.61855">
        <ele>475.7</ele>
        <time>2014-10-08T07:59:44Z</time>
      </trkpt>
      <trkpt lat="43.24343" lon="5.61852">
        <ele>475.7</ele>
        <time>2014-10-08T07:59:47Z</time>
      </trkpt>
      <trkpt lat="43.24346" lon="5.61849">
        <ele>475.5</ele>
        <time>2014-10-08T07:59:50Z</time>
      </trkpt>
      <trkpt lat="43.24349" lon="5.61846">
        <ele>474.8</ele>
        <time>2014-10-08T07:59:53Z</time>
      </trkpt>
      <trkpt lat="43.24351" lon="5.61843">
        <ele>474.7</ele>
        <time>2014-10-08T07:59:55Z</time>
      </trkpt>
      <trkpt lat="43.24355" lon="5.61841">
        <ele>474.3</ele>
        <time>2014-10-08T07:59:58Z</time>
      </trkpt>
      <trkpt lat="43.24358" lon="5.61837">
        <ele>473.7</ele>
        <time>2014-10-08T08:00:02Z</time>
      </trkpt>
      <trkpt lat="43.24362" lon="5.61833">
        <ele>473.3</ele>
        <time>2014-10-08T08:00:06Z</time>
      </trkpt>
      <trkpt lat="43.24365" lon="5.6183">
        <ele>472.5</ele>
        <time>2014-10-08T08:00:10Z</time>
      </trkpt>
      <trkpt lat="43.24368" lon="5.61826">
        <ele>471.7</ele>
        <time>2014-10-08T08:00:15Z</time>
      </trkpt>
      <trkpt lat="43.24372" lon="5.61825">
        <ele>471.5</ele>
        <time>2014-10-08T08:00:19Z</time>
      </trkpt>
      <trkpt lat="43.24373" lon="5.61824">
        <ele>471.3</ele>
        <time>2014-10-08T08:00:20Z</time>
      </trkpt>
      <trkpt lat="43.24378" lon="5.61819">
        <ele>471.2</ele>
        <time>2014-10-08T08:00:26Z</time>
      </trkpt>
      <trkpt lat="43.24381" lon="5.61816">
        <ele>471</ele>
        <time>2014-10-08T08:00:29Z</time>
      </trkpt>
      <trkpt lat="43.24384" lon="5.61813">
        <ele>471.2</ele>
        <time>2014-10-08T08:00:33Z</time>
      </trkpt>
      <trkpt lat="43.24388" lon="5.61812">
        <ele>471.8</ele>
        <time>2014-10-08T08:00:38Z</time>
      </trkpt>
      <trkpt lat="43.24391" lon="5.61809">
        <ele>473.3</ele>
        <time>2014-10-08T08:00:42Z</time>
      </trkpt>
      <trkpt lat="43.24395" lon="5.61806">
        <ele>473.2</ele>
        <time>2014-10-08T08:00:46Z</time>
      </trkpt>
      <trkpt lat="43.24398" lon="5.61803">
        <ele>473.7</ele>
        <time>2014-10-08T08:00:50Z</time>
      </trkpt>
      <trkpt lat="43.24401" lon="5.618">
        <ele>475.2</ele>
        <time>2014-10-08T08:00:55Z</time>
      </trkpt>
      <trkpt lat="43.24404" lon="5.61796">
        <ele>476.5</ele>
        <time>2014-10-08T08:00:58Z</time>
      </trkpt>
      <trkpt lat="43.24408" lon="5.61794">
        <ele>476</ele>
        <time>2014-10-08T08:01:00Z</time>
      </trkpt>
      <trkpt lat="43.2441" lon="5.61791">
        <ele>477.5</ele>
        <time>2014-10-08T08:01:02Z</time>
      </trkpt>
      <trkpt lat="43.24413" lon="5.61787">
        <ele>478.2</ele>
        <time>2014-10-08T08:01:06Z</time>
      </trkpt>
      <trkpt lat="43.24416" lon="5.61784">
        <ele>478.2</ele>
        <time>2014-10-08T08:01:09Z</time>
      </trkpt>
      <trkpt lat="43.24419" lon="5.61781">
        <ele>476.3</ele>
        <time>2014-10-08T08:01:12Z</time>
      </trkpt>
      <trkpt lat="43.24421" lon="5.61777">
        <ele>476.1</ele>
        <time>2014-10-08T08:01:14Z</time>
      </trkpt>
      <trkpt lat="43.24423" lon="5.61775">
        <ele>475.8</ele>
        <time>2014-10-08T08:01:15Z</time>
      </trkpt>
      <trkpt lat="43.24426" lon="5.61771">
        <ele>476.1</ele>
        <time>2014-10-08T08:01:18Z</time>
      </trkpt>
      <trkpt lat="43.2443" lon="5.6177">
        <ele>476.7</ele>
        <time>2014-10-08T08:01:22Z</time>
      </trkpt>
      <trkpt lat="43.24431" lon="5.61769">
        <ele>476.8</ele>
        <time>2014-10-08T08:01:23Z</time>
      </trkpt>
      <trkpt lat="43.24437" lon="5.61765">
        <ele>480.1</ele>
        <time>2014-10-08T08:01:30Z</time>
      </trkpt>
      <trkpt lat="43.2444" lon="5.61761">
        <ele>481.2</ele>
        <time>2014-10-08T08:01:35Z</time>
      </trkpt>
      <trkpt lat="43.24443" lon="5.61759">
        <ele>483.3</ele>
        <time>2014-10-08T08:01:39Z</time>
      </trkpt>
      <trkpt lat="43.24446" lon="5.61755">
        <ele>482.3</ele>
        <time>2014-10-08T08:01:42Z</time>
      </trkpt>
      <trkpt lat="43.24448" lon="5.61751">
        <ele>481.2</ele>
        <time>2014-10-08T08:01:44Z</time>
      </trkpt>
      <trkpt lat="43.24449" lon="5.61748">
        <ele>479.3</ele>
        <time>2014-10-08T08:01:46Z</time>
      </trkpt>
      <trkpt lat="43.24452" lon="5.61743">
        <ele>478</ele>
        <time>2014-10-08T08:01:49Z</time>
      </trkpt>
      <trkpt lat="43.24454" lon="5.61739">
        <ele>476.2</ele>
        <time>2014-10-08T08:01:52Z</time>
      </trkpt>
      <trkpt lat="43.24455" lon="5.61735">
        <ele>475.7</ele>
        <time>2014-10-08T08:01:55Z</time>
      </trkpt>
      <trkpt lat="43.24457" lon="5.61731">
        <ele>475.1</ele>
        <time>2014-10-08T08:01:58Z</time>
      </trkpt>
      <trkpt lat="43.24459" lon="5.61726">
        <ele>474.8</ele>
        <time>2014-10-08T08:02:01Z</time>
      </trkpt>
      <trkpt lat="43.2446" lon="5.6172">
        <ele>474.2</ele>
        <time>2014-10-08T08:02:04Z</time>
      </trkpt>
      <trkpt lat="43.24461" lon="5.61715">
        <ele>473.5</ele>
        <time>2014-10-08T08:02:07Z</time>
      </trkpt>
      <trkpt lat="43.24461" lon="5.6171">
        <ele>473.3</ele>
        <time>2014-10-08T08:02:10Z</time>
      </trkpt>
      <trkpt lat="43.24461" lon="5.61705">
        <ele>473</ele>
        <time>2014-10-08T08:02:14Z</time>
      </trkpt>
      <trkpt lat="43.24461" lon="5.617">
        <ele>472.2</ele>
        <time>2014-10-08T08:02:19Z</time>
      </trkpt>
      <trkpt lat="43.24461" lon="5.61694">
        <ele>471.7</ele>
        <time>2014-10-08T08:02:25Z</time>
      </trkpt>
      <trkpt lat="43.24461" lon="5.61693">
        <ele>471.7</ele>
        <time>2014-10-08T08:02:26Z</time>
      </trkpt>
      <trkpt lat="43.24461" lon="5.61683">
        <ele>472.2</ele>
        <time>2014-10-08T08:02:34Z</time>
      </trkpt>
      <trkpt lat="43.24461" lon="5.61677">
        <ele>472.7</ele>
        <time>2014-10-08T08:02:38Z</time>
      </trkpt>
      <trkpt lat="43.24459" lon="5.61672">
        <ele>471.3</ele>
        <time>2014-10-08T08:02:42Z</time>
      </trkpt>
      <trkpt lat="43.2446" lon="5.61666">
        <ele>471.3</ele>
        <time>2014-10-08T08:02:46Z</time>
      </trkpt>
      <trkpt lat="43.24458" lon="5.61661">
        <ele>470.5</ele>
        <time>2014-10-08T08:02:50Z</time>
      </trkpt>
      <trkpt lat="43.24458" lon="5.61656">
        <ele>470.3</ele>
        <time>2014-10-08T08:02:54Z</time>
      </trkpt>
      <trkpt lat="43.24457" lon="5.6165">
        <ele>470.5</ele>
        <time>2014-10-08T08:02:58Z</time>
      </trkpt>
      <trkpt lat="43.24455" lon="5.61646">
        <ele>470.2</ele>
        <time>2014-10-08T08:03:02Z</time>
      </trkpt>
      <trkpt lat="43.24452" lon="5.61641">
        <ele>468.3</ele>
        <time>2014-10-08T08:04:31Z</time>
      </trkpt>
      <trkpt lat="43.24452" lon="5.61641">
        <ele>468.2</ele>
        <time>2014-10-08T08:04:32Z</time>
      </trkpt>
      <trkpt lat="43.24449" lon="5.61637">
        <ele>469.2</ele>
        <time>2014-10-08T08:06:35Z</time>
      </trkpt>
      <trkpt lat="43.24444" lon="5.61631">
        <ele>468.3</ele>
        <time>2014-10-08T08:06:42Z</time>
      </trkpt>
      <trkpt lat="43.24442" lon="5.61626">
        <ele>469.2</ele>
        <time>2014-10-08T08:06:46Z</time>
      </trkpt>
      <trkpt lat="43.24439" lon="5.61622">
        <ele>470.6</ele>
        <time>2014-10-08T08:06:50Z</time>
      </trkpt>
      <trkpt lat="43.24437" lon="5.61618">
        <ele>471</ele>
        <time>2014-10-08T08:06:55Z</time>
      </trkpt>
      <trkpt lat="43.24434" lon="5.61613">
        <ele>471.2</ele>
        <time>2014-10-08T08:07:00Z</time>
      </trkpt>
      <trkpt lat="43.24434" lon="5.61609">
        <ele>473.3</ele>
        <time>2014-10-08T08:07:03Z</time>
      </trkpt>
      <trkpt lat="43.24432" lon="5.61604">
        <ele>474.1</ele>
        <time>2014-10-08T08:07:06Z</time>
      </trkpt>
      <trkpt lat="43.2443" lon="5.61599">
        <ele>473.6</ele>
        <time>2014-10-08T08:07:10Z</time>
      </trkpt>
      <trkpt lat="43.24429" lon="5.61593">
        <ele>473.7</ele>
        <time>2014-10-08T08:07:14Z</time>
      </trkpt>
      <trkpt lat="43.24428" lon="5.61588">
        <ele>473.2</ele>
        <time>2014-10-08T08:07:18Z</time>
      </trkpt>
      <trkpt lat="43.24427" lon="5.61583">
        <ele>472.5</ele>
        <time>2014-10-08T08:07:22Z</time>
      </trkpt>
      <trkpt lat="43.24426" lon="5.61577">
        <ele>471.2</ele>
        <time>2014-10-08T08:07:26Z</time>
      </trkpt>
      <trkpt lat="43.24425" lon="5.61572">
        <ele>471</ele>
        <time>2014-10-08T08:07:30Z</time>
      </trkpt>
      <trkpt lat="43.24425" lon="5.61566">
        <ele>471.6</ele>
        <time>2014-10-08T08:07:34Z</time>
      </trkpt>
      <trkpt lat="43.24424" lon="5.6156">
        <ele>472.1</ele>
        <time>2014-10-08T08:07:38Z</time>
      </trkpt>
      <trkpt lat="43.24424" lon="5.61559">
        <ele>472</ele>
        <time>2014-10-08T08:07:39Z</time>
      </trkpt>
      <trkpt lat="43.24421" lon="5.6155">
        <ele>472.2</ele>
        <time>2014-10-08T08:07:46Z</time>
      </trkpt>
      <trkpt lat="43.24419" lon="5.61546">
        <ele>470.8</ele>
        <time>2014-10-08T08:07:49Z</time>
      </trkpt>
      <trkpt lat="43.24418" lon="5.61541">
        <ele>471.2</ele>
        <time>2014-10-08T08:07:53Z</time>
      </trkpt>
      <trkpt lat="43.24418" lon="5.61536">
        <ele>472.1</ele>
        <time>2014-10-08T08:07:56Z</time>
      </trkpt>
      <trkpt lat="43.24418" lon="5.61531">
        <ele>473.5</ele>
        <time>2014-10-08T08:07:59Z</time>
      </trkpt>
      <trkpt lat="43.24417" lon="5.61526">
        <ele>473.2</ele>
        <time>2014-10-08T08:08:03Z</time>
      </trkpt>
      <trkpt lat="43.24418" lon="5.61521">
        <ele>473.5</ele>
        <time>2014-10-08T08:08:06Z</time>
      </trkpt>
      <trkpt lat="43.24418" lon="5.61515">
        <ele>473.2</ele>
        <time>2014-10-08T08:08:10Z</time>
      </trkpt>
      <trkpt lat="43.24419" lon="5.6151">
        <ele>472.8</ele>
        <time>2014-10-08T08:08:14Z</time>
      </trkpt>
      <trkpt lat="43.24421" lon="5.61505">
        <ele>472.7</ele>
        <time>2014-10-08T08:08:17Z</time>
      </trkpt>
      <trkpt lat="43.24423" lon="5.615">
        <ele>472.6</ele>
        <time>2014-10-08T08:08:21Z</time>
      </trkpt>
      <trkpt lat="43.24425" lon="5.61496">
        <ele>472.8</ele>
        <time>2014-10-08T08:08:25Z</time>
      </trkpt>
      <trkpt lat="43.24428" lon="5.61491">
        <ele>473.3</ele>
        <time>2014-10-08T08:08:31Z</time>
      </trkpt>
      <trkpt lat="43.2443" lon="5.61486">
        <ele>472.5</ele>
        <time>2014-10-08T08:08:41Z</time>
      </trkpt>
      <trkpt lat="43.2443" lon="5.61486">
        <ele>472.2</ele>
        <time>2014-10-08T08:08:42Z</time>
      </trkpt>
      <trkpt lat="43.24433" lon="5.61476">
        <ele>472</ele>
        <time>2014-10-08T08:08:51Z</time>
      </trkpt>
      <trkpt lat="43.24433" lon="5.61471">
        <ele>472</ele>
        <time>2014-10-08T08:08:55Z</time>
      </trkpt>
      <trkpt lat="43.24434" lon="5.61467">
        <ele>472.2</ele>
        <time>2014-10-08T08:08:58Z</time>
      </trkpt>
      <trkpt lat="43.24435" lon="5.61461">
        <ele>473.2</ele>
        <time>2014-10-08T08:09:02Z</time>
      </trkpt>
      <trkpt lat="43.24435" lon="5.61456">
        <ele>473.1</ele>
        <time>2014-10-08T08:09:06Z</time>
      </trkpt>
      <trkpt lat="43.24435" lon="5.6145">
        <ele>474.2</ele>
        <time>2014-10-08T08:09:10Z</time>
      </trkpt>
      <trkpt lat="43.24434" lon="5.61445">
        <ele>474.8</ele>
        <time>2014-10-08T08:09:14Z</time>
      </trkpt>
      <trkpt lat="43.24433" lon="5.61439">
        <ele>474.3</ele>
        <time>2014-10-08T08:09:18Z</time>
      </trkpt>
      <trkpt lat="43.24431" lon="5.61434">
        <ele>474.2</ele>
        <time>2014-10-08T08:09:23Z</time>
      </trkpt>
      <trkpt lat="43.24428" lon="5.6143">
        <ele>472.2</ele>
        <time>2014-10-08T08:09:28Z</time>
      </trkpt>
      <trkpt lat="43.24427" lon="5.61424">
        <ele>473.5</ele>
        <time>2014-10-08T08:09:38Z</time>
      </trkpt>
      <trkpt lat="43.24424" lon="5.6142">
        <ele>472.2</ele>
        <time>2014-10-08T08:09:44Z</time>
      </trkpt>
      <trkpt lat="43.24424" lon="5.6142">
        <ele>472.1</ele>
        <time>2014-10-08T08:09:45Z</time>
      </trkpt>
      <trkpt lat="43.24418" lon="5.61414">
        <ele>470</ele>
        <time>2014-10-08T08:09:53Z</time>
      </trkpt>
      <trkpt lat="43.24416" lon="5.61411">
        <ele>468.8</ele>
        <time>2014-10-08T08:09:56Z</time>
      </trkpt>
      <trkpt lat="43.24414" lon="5.61405">
        <ele>469.1</ele>
        <time>2014-10-08T08:10:02Z</time>
      </trkpt>
      <trkpt lat="43.24412" lon="5.61401">
        <ele>468.7</ele>
        <time>2014-10-08T08:10:07Z</time>
      </trkpt>
      <trkpt lat="43.2441" lon="5.61396">
        <ele>469.2</ele>
        <time>2014-10-08T08:10:12Z</time>
      </trkpt>
      <trkpt lat="43.24408" lon="5.61391">
        <ele>468.6</ele>
        <time>2014-10-08T08:10:17Z</time>
      </trkpt>
      <trkpt lat="43.24407" lon="5.61386">
        <ele>474.2</ele>
        <time>2014-10-08T08:10:25Z</time>
      </trkpt>
      <trkpt lat="43.24408" lon="5.61381">
        <ele>476.2</ele>
        <time>2014-10-08T08:10:29Z</time>
      </trkpt>
      <trkpt lat="43.24407" lon="5.61376">
        <ele>476</ele>
        <time>2014-10-08T08:10:33Z</time>
      </trkpt>
      <trkpt lat="43.24405" lon="5.61372">
        <ele>474.2</ele>
        <time>2014-10-08T08:10:36Z</time>
      </trkpt>
      <trkpt lat="43.24403" lon="5.61368">
        <ele>472.2</ele>
        <time>2014-10-08T08:10:40Z</time>
      </trkpt>
      <trkpt lat="43.244" lon="5.61364">
        <ele>470.2</ele>
        <time>2014-10-08T08:10:44Z</time>
      </trkpt>
      <trkpt lat="43.24398" lon="5.61359">
        <ele>469.7</ele>
        <time>2014-10-08T08:10:48Z</time>
      </trkpt>
      <trkpt lat="43.24397" lon="5.61358">
        <ele>468.7</ele>
        <time>2014-10-08T08:10:49Z</time>
      </trkpt>
      <trkpt lat="43.24393" lon="5.61349">
        <ele>467.3</ele>
        <time>2014-10-08T08:10:56Z</time>
      </trkpt>
      <trkpt lat="43.24392" lon="5.61343">
        <ele>467.3</ele>
        <time>2014-10-08T08:11:00Z</time>
      </trkpt>
      <trkpt lat="43.2439" lon="5.61338">
        <ele>468.8</ele>
        <time>2014-10-08T08:11:04Z</time>
      </trkpt>
      <trkpt lat="43.24393" lon="5.61334">
        <ele>475.6</ele>
        <time>2014-10-08T08:12:11Z</time>
      </trkpt>
      <trkpt lat="43.24393" lon="5.61333">
        <ele>475.2</ele>
        <time>2014-10-08T08:12:12Z</time>
      </trkpt>
      <trkpt lat="43.24392" lon="5.61323">
        <ele>471.8</ele>
        <time>2014-10-08T08:12:20Z</time>
      </trkpt>
      <trkpt lat="43.24391" lon="5.61319">
        <ele>472.3</ele>
        <time>2014-10-08T08:12:24Z</time>
      </trkpt>
      <trkpt lat="43.24391" lon="5.61313">
        <ele>474.8</ele>
        <time>2014-10-08T08:12:28Z</time>
      </trkpt>
      <trkpt lat="43.2439" lon="5.61308">
        <ele>475.3</ele>
        <time>2014-10-08T08:12:32Z</time>
      </trkpt>
      <trkpt lat="43.24387" lon="5.61305">
        <ele>473.8</ele>
        <time>2014-10-08T08:12:36Z</time>
      </trkpt>
      <trkpt lat="43.24385" lon="5.61299">
        <ele>474.2</ele>
        <time>2014-10-08T08:12:39Z</time>
      </trkpt>
      <trkpt lat="43.24383" lon="5.61295">
        <ele>472.3</ele>
        <time>2014-10-08T08:12:43Z</time>
      </trkpt>
      <trkpt lat="43.24382" lon="5.61289">
        <ele>472.6</ele>
        <time>2014-10-08T08:12:48Z</time>
      </trkpt>
      <trkpt lat="43.24379" lon="5.61285">
        <ele>471.3</ele>
        <time>2014-10-08T08:12:52Z</time>
      </trkpt>
      <trkpt lat="43.24377" lon="5.61281">
        <ele>470.2</ele>
        <time>2014-10-08T08:12:56Z</time>
      </trkpt>
      <trkpt lat="43.24377" lon="5.61276">
        <ele>473.5</ele>
        <time>2014-10-08T08:12:59Z</time>
      </trkpt>
      <trkpt lat="43.24375" lon="5.61272">
        <ele>471.5</ele>
        <time>2014-10-08T08:13:03Z</time>
      </trkpt>
      <trkpt lat="43.24374" lon="5.61266">
        <ele>472.2</ele>
        <time>2014-10-08T08:13:07Z</time>
      </trkpt>
      <trkpt lat="43.24371" lon="5.61262">
        <ele>470.5</ele>
        <time>2014-10-08T08:13:11Z</time>
      </trkpt>
      <trkpt lat="43.24369" lon="5.61257">
        <ele>470.2</ele>
        <time>2014-10-08T08:13:15Z</time>
      </trkpt>
      <trkpt lat="43.24369" lon="5.61256">
        <ele>469.8</ele>
        <time>2014-10-08T08:13:16Z</time>
      </trkpt>
      <trkpt lat="43.24367" lon="5.61246">
        <ele>468.6</ele>
        <time>2014-10-08T08:13:23Z</time>
      </trkpt>
      <trkpt lat="43.24366" lon="5.61242">
        <ele>470</ele>
        <time>2014-10-08T08:13:27Z</time>
      </trkpt>
      <trkpt lat="43.24363" lon="5.61237">
        <ele>470</ele>
        <time>2014-10-08T08:13:31Z</time>
      </trkpt>
      <trkpt lat="43.24361" lon="5.61232">
        <ele>468.3</ele>
        <time>2014-10-08T08:13:35Z</time>
      </trkpt>
      <trkpt lat="43.24361" lon="5.61227">
        <ele>469.7</ele>
        <time>2014-10-08T08:13:39Z</time>
      </trkpt>
      <trkpt lat="43.24359" lon="5.61222">
        <ele>467.5</ele>
        <time>2014-10-08T08:13:43Z</time>
      </trkpt>
      <trkpt lat="43.24358" lon="5.61218">
        <ele>467.3</ele>
        <time>2014-10-08T08:13:47Z</time>
      </trkpt>
      <trkpt lat="43.24358" lon="5.61212">
        <ele>466.7</ele>
        <time>2014-10-08T08:13:51Z</time>
      </trkpt>
      <trkpt lat="43.24357" lon="5.61207">
        <ele>465.1</ele>
        <time>2014-10-08T08:13:55Z</time>
      </trkpt>
      <trkpt lat="43.24357" lon="5.61201">
        <ele>464.6</ele>
        <time>2014-10-08T08:13:59Z</time>
      </trkpt>
      <trkpt lat="43.24354" lon="5.61197">
        <ele>462.7</ele>
        <time>2014-10-08T08:14:07Z</time>
      </trkpt>
      <trkpt lat="43.24355" lon="5.61191">
        <ele>469.3</ele>
        <time>2014-10-08T08:14:55Z</time>
      </trkpt>
      <trkpt lat="43.24355" lon="5.6119">
        <ele>469.2</ele>
        <time>2014-10-08T08:14:56Z</time>
      </trkpt>
      <trkpt lat="43.24355" lon="5.61191">
        <ele>463</ele>
        <time>2014-10-08T08:15:38Z</time>
      </trkpt>
      <trkpt lat="43.24357" lon="5.61187">
        <ele>461.2</ele>
        <time>2014-10-08T08:17:39Z</time>
      </trkpt>
      <trkpt lat="43.24357" lon="5.61186">
        <ele>461.6</ele>
        <time>2014-10-08T08:17:40Z</time>
      </trkpt>
      <trkpt lat="43.24357" lon="5.61175">
        <ele>464.2</ele>
        <time>2014-10-08T08:18:27Z</time>
      </trkpt>
      <trkpt lat="43.24358" lon="5.6117">
        <ele>463.2</ele>
        <time>2014-10-08T08:18:32Z</time>
      </trkpt>
      <trkpt lat="43.2436" lon="5.61164">
        <ele>462.2</ele>
        <time>2014-10-08T08:18:37Z</time>
      </trkpt>
      <trkpt lat="43.24361" lon="5.61158">
        <ele>463.1</ele>
        <time>2014-10-08T08:18:41Z</time>
      </trkpt>
      <trkpt lat="43.24361" lon="5.61157">
        <ele>462.8</ele>
        <time>2014-10-08T08:18:42Z</time>
      </trkpt>
      <trkpt lat="43.24361" lon="5.61148">
        <ele>462.6</ele>
        <time>2014-10-08T08:18:49Z</time>
      </trkpt>
      <trkpt lat="43.2436" lon="5.61143">
        <ele>463.3</ele>
        <time>2014-10-08T08:18:54Z</time>
      </trkpt>
      <trkpt lat="43.24358" lon="5.61137">
        <ele>463.2</ele>
        <time>2014-10-08T08:18:59Z</time>
      </trkpt>
      <trkpt lat="43.24355" lon="5.61135">
        <ele>462.1</ele>
        <time>2014-10-08T08:19:03Z</time>
      </trkpt>
      <trkpt lat="43.24351" lon="5.61134">
        <ele>460.2</ele>
        <time>2014-10-08T08:19:06Z</time>
      </trkpt>
      <trkpt lat="43.24347" lon="5.61133">
        <ele>457.2</ele>
        <time>2014-10-08T08:19:09Z</time>
      </trkpt>
      <trkpt lat="43.24343" lon="5.61134">
        <ele>454.5</ele>
        <time>2014-10-08T08:19:13Z</time>
      </trkpt>
      <trkpt lat="43.24339" lon="5.61133">
        <ele>451.5</ele>
        <time>2014-10-08T08:19:17Z</time>
      </trkpt>
      <trkpt lat="43.24335" lon="5.61135">
        <ele>449.2</ele>
        <time>2014-10-08T08:19:21Z</time>
      </trkpt>
      <trkpt lat="43.24331" lon="5.61135">
        <ele>451.3</ele>
        <time>2014-10-08T08:19:26Z</time>
      </trkpt>
      <trkpt lat="43.24327" lon="5.61135">
        <ele>459</ele>
        <time>2014-10-08T08:19:31Z</time>
      </trkpt>
      <trkpt lat="43.24323" lon="5.61135">
        <ele>461.6</ele>
        <time>2014-10-08T08:19:37Z</time>
      </trkpt>
      <trkpt lat="43.24319" lon="5.61134">
        <ele>461.5</ele>
        <time>2014-10-08T08:19:40Z</time>
      </trkpt>
      <trkpt lat="43.24316" lon="5.61134">
        <ele>458.7</ele>
        <time>2014-10-08T08:19:43Z</time>
      </trkpt>
      <trkpt lat="43.24314" lon="5.61133">
        <ele>456.7</ele>
        <time>2014-10-08T08:19:44Z</time>
      </trkpt>
      <trkpt lat="43.24309" lon="5.61131">
        <ele>455.7</ele>
        <time>2014-10-08T08:19:48Z</time>
      </trkpt>
      <trkpt lat="43.24305" lon="5.61129">
        <ele>454.8</ele>
        <time>2014-10-08T08:19:51Z</time>
      </trkpt>
      <trkpt lat="43.24302" lon="5.61126">
        <ele>455.2</ele>
        <time>2014-10-08T08:19:54Z</time>
      </trkpt>
      <trkpt lat="43.24299" lon="5.61122">
        <ele>461.2</ele>
        <time>2014-10-08T08:20:00Z</time>
      </trkpt>
      <trkpt lat="43.24296" lon="5.61118">
        <ele>466.2</ele>
        <time>2014-10-08T08:20:04Z</time>
      </trkpt>
      <trkpt lat="43.24293" lon="5.61115">
        <ele>467.2</ele>
        <time>2014-10-08T08:20:08Z</time>
      </trkpt>
      <trkpt lat="43.2429" lon="5.61114">
        <ele>466.3</ele>
        <time>2014-10-08T08:20:11Z</time>
      </trkpt>
      <trkpt lat="43.24287" lon="5.6111">
        <ele>467.3</ele>
        <time>2014-10-08T08:20:14Z</time>
      </trkpt>
      <trkpt lat="43.24284" lon="5.61109">
        <ele>465.8</ele>
        <time>2014-10-08T08:20:17Z</time>
      </trkpt>
      <trkpt lat="43.2428" lon="5.61109">
        <ele>462.1</ele>
        <time>2014-10-08T08:20:20Z</time>
      </trkpt>
      <trkpt lat="43.24277" lon="5.61105">
        <ele>464.5</ele>
        <time>2014-10-08T08:20:24Z</time>
      </trkpt>
      <trkpt lat="43.24274" lon="5.61101">
        <ele>467.7</ele>
        <time>2014-10-08T08:20:28Z</time>
      </trkpt>
      <trkpt lat="43.24271" lon="5.61098">
        <ele>467.1</ele>
        <time>2014-10-08T08:20:31Z</time>
      </trkpt>
      <trkpt lat="43.24267" lon="5.61096">
        <ele>466.2</ele>
        <time>2014-10-08T08:20:34Z</time>
      </trkpt>
      <trkpt lat="43.24264" lon="5.61094">
        <ele>465.6</ele>
        <time>2014-10-08T08:20:38Z</time>
      </trkpt>
      <trkpt lat="43.2426" lon="5.61091">
        <ele>463.6</ele>
        <time>2014-10-08T08:20:42Z</time>
      </trkpt>
      <trkpt lat="43.24255" lon="5.6109">
        <ele>460.7</ele>
        <time>2014-10-08T08:20:46Z</time>
      </trkpt>
      <trkpt lat="43.24254" lon="5.61089">
        <ele>460.2</ele>
        <time>2014-10-08T08:20:47Z</time>
      </trkpt>
      <trkpt lat="43.24248" lon="5.61086">
        <ele>455.6</ele>
        <time>2014-10-08T08:20:53Z</time>
      </trkpt>
      <trkpt lat="43.24244" lon="5.61084">
        <ele>453.1</ele>
        <time>2014-10-08T08:20:57Z</time>
      </trkpt>
      <trkpt lat="43.24241" lon="5.6108">
        <ele>452</ele>
        <time>2014-10-08T08:21:01Z</time>
      </trkpt>
      <trkpt lat="43.24237" lon="5.61077">
        <ele>452</ele>
        <time>2014-10-08T08:21:05Z</time>
      </trkpt>
      <trkpt lat="43.24236" lon="5.61072">
        <ele>456.2</ele>
        <time>2014-10-08T08:21:08Z</time>
      </trkpt>
      <trkpt lat="43.24233" lon="5.61068">
        <ele>460</ele>
        <time>2014-10-08T08:21:12Z</time>
      </trkpt>
      <trkpt lat="43.24231" lon="5.61065">
        <ele>460.5</ele>
        <time>2014-10-08T08:21:15Z</time>
      </trkpt>
      <trkpt lat="43.24229" lon="5.61061">
        <ele>462</ele>
        <time>2014-10-08T08:21:19Z</time>
      </trkpt>
      <trkpt lat="43.24226" lon="5.61059">
        <ele>459.6</ele>
        <time>2014-10-08T08:21:21Z</time>
      </trkpt>
      <trkpt lat="43.24223" lon="5.61058">
        <ele>456.2</ele>
        <time>2014-10-08T08:21:23Z</time>
      </trkpt>
      <trkpt lat="43.2422" lon="5.61054">
        <ele>457.7</ele>
        <time>2014-10-08T08:21:27Z</time>
      </trkpt>
      <trkpt lat="43.24217" lon="5.6105">
        <ele>455</ele>
        <time>2014-10-08T08:21:31Z</time>
      </trkpt>
      <trkpt lat="43.24214" lon="5.61047">
        <ele>452.2</ele>
        <time>2014-10-08T08:21:34Z</time>
      </trkpt>
      <trkpt lat="43.24211" lon="5.61044">
        <ele>450.2</ele>
        <time>2014-10-08T08:21:37Z</time>
      </trkpt>
      <trkpt lat="43.2421" lon="5.61039">
        <ele>452.2</ele>
        <time>2014-10-08T08:21:41Z</time>
      </trkpt>
      <trkpt lat="43.24211" lon="5.61034">
        <ele>457.2</ele>
        <time>2014-10-08T08:21:45Z</time>
      </trkpt>
      <trkpt lat="43.24212" lon="5.61028">
        <ele>463.7</ele>
        <time>2014-10-08T08:21:48Z</time>
      </trkpt>
      <trkpt lat="43.24213" lon="5.61026">
        <ele>466.2</ele>
        <time>2014-10-08T08:21:49Z</time>
      </trkpt>
      <trkpt lat="43.24213" lon="5.61018">
        <ele>474.2</ele>
        <time>2014-10-08T08:21:54Z</time>
      </trkpt>
      <trkpt lat="43.24213" lon="5.61012">
        <ele>477.7</ele>
        <time>2014-10-08T08:21:57Z</time>
      </trkpt>
      <trkpt lat="43.24213" lon="5.61007">
        <ele>480.8</ele>
        <time>2014-10-08T08:22:00Z</time>
      </trkpt>
      <trkpt lat="43.24213" lon="5.61001">
        <ele>486.3</ele>
        <time>2014-10-08T08:22:03Z</time>
      </trkpt>
      <trkpt lat="43.24211" lon="5.60996">
        <ele>486.8</ele>
        <time>2014-10-08T08:22:07Z</time>
      </trkpt>
      <trkpt lat="43.24209" lon="5.60992">
        <ele>487.1</ele>
        <time>2014-10-08T08:22:10Z</time>
      </trkpt>
      <trkpt lat="43.24208" lon="5.60986">
        <ele>489.8</ele>
        <time>2014-10-08T08:22:13Z</time>
      </trkpt>
      <trkpt lat="43.24206" lon="5.60981">
        <ele>485.7</ele>
        <time>2014-10-08T08:22:18Z</time>
      </trkpt>
      <trkpt lat="43.24203" lon="5.60978">
        <ele>478</ele>
        <time>2014-10-08T08:22:22Z</time>
      </trkpt>
      <trkpt lat="43.24201" lon="5.60973">
        <ele>471.2</ele>
        <time>2014-10-08T08:22:27Z</time>
      </trkpt>
      <trkpt lat="43.242" lon="5.60968">
        <ele>469</ele>
        <time>2014-10-08T08:22:31Z</time>
      </trkpt>
      <trkpt lat="43.24201" lon="5.60962">
        <ele>470.1</ele>
        <time>2014-10-08T08:22:34Z</time>
      </trkpt>
      <trkpt lat="43.242" lon="5.60957">
        <ele>466.5</ele>
        <time>2014-10-08T08:22:38Z</time>
      </trkpt>
      <trkpt lat="43.24196" lon="5.60955">
        <ele>459.6</ele>
        <time>2014-10-08T08:22:41Z</time>
      </trkpt>
      <trkpt lat="43.24194" lon="5.60952">
        <ele>453.7</ele>
        <time>2014-10-08T08:22:45Z</time>
      </trkpt>
      <trkpt lat="43.24191" lon="5.60947">
        <ele>447.7</ele>
        <time>2014-10-08T08:22:49Z</time>
      </trkpt>
      <trkpt lat="43.24191" lon="5.60946">
        <ele>447.1</ele>
        <time>2014-10-08T08:22:50Z</time>
      </trkpt>
      <trkpt lat="43.24188" lon="5.60937">
        <ele>441.1</ele>
        <time>2014-10-08T08:22:58Z</time>
      </trkpt>
      <trkpt lat="43.24185" lon="5.60933">
        <ele>437.7</ele>
        <time>2014-10-08T08:23:01Z</time>
      </trkpt>
      <trkpt lat="43.24182" lon="5.60931">
        <ele>433.6</ele>
        <time>2014-10-08T08:23:04Z</time>
      </trkpt>
      <trkpt lat="43.24179" lon="5.60928">
        <ele>429.6</ele>
        <time>2014-10-08T08:23:07Z</time>
      </trkpt>
      <trkpt lat="43.24177" lon="5.60923">
        <ele>428.7</ele>
        <time>2014-10-08T08:23:10Z</time>
      </trkpt>
      <trkpt lat="43.24175" lon="5.60919">
        <ele>425.7</ele>
        <time>2014-10-08T08:23:14Z</time>
      </trkpt>
      <trkpt lat="43.24174" lon="5.60914">
        <ele>426.2</ele>
        <time>2014-10-08T08:23:18Z</time>
      </trkpt>
      <trkpt lat="43.24174" lon="5.60909">
        <ele>426.7</ele>
        <time>2014-10-08T08:23:22Z</time>
      </trkpt>
      <trkpt lat="43.2417" lon="5.60905">
        <ele>424.6</ele>
        <time>2014-10-08T08:23:25Z</time>
      </trkpt>
      <trkpt lat="43.24168" lon="5.60901">
        <ele>424.7</ele>
        <time>2014-10-08T08:23:29Z</time>
      </trkpt>
      <trkpt lat="43.24166" lon="5.60895">
        <ele>426.3</ele>
        <time>2014-10-08T08:23:33Z</time>
      </trkpt>
      <trkpt lat="43.24165" lon="5.6089">
        <ele>428.2</ele>
        <time>2014-10-08T08:23:37Z</time>
      </trkpt>
      <trkpt lat="43.24163" lon="5.60885">
        <ele>426.7</ele>
        <time>2014-10-08T08:23:41Z</time>
      </trkpt>
      <trkpt lat="43.24161" lon="5.60881">
        <ele>424.8</ele>
        <time>2014-10-08T08:23:44Z</time>
      </trkpt>
      <trkpt lat="43.24159" lon="5.60876">
        <ele>425.7</ele>
        <time>2014-10-08T08:23:47Z</time>
      </trkpt>
      <trkpt lat="43.24158" lon="5.60871">
        <ele>425.5</ele>
        <time>2014-10-08T08:23:51Z</time>
      </trkpt>
      <trkpt lat="43.24157" lon="5.6087">
        <ele>425.7</ele>
        <time>2014-10-08T08:23:52Z</time>
      </trkpt>
      <trkpt lat="43.24156" lon="5.60861">
        <ele>429.2</ele>
        <time>2014-10-08T08:23:59Z</time>
      </trkpt>
      <trkpt lat="43.24156" lon="5.60855">
        <ele>432.3</ele>
        <time>2014-10-08T08:24:03Z</time>
      </trkpt>
      <trkpt lat="43.24154" lon="5.60849">
        <ele>433.6</ele>
        <time>2014-10-08T08:24:07Z</time>
      </trkpt>
      <trkpt lat="43.24152" lon="5.60846">
        <ele>430.8</ele>
        <time>2014-10-08T08:24:10Z</time>
      </trkpt>
      <trkpt lat="43.24149" lon="5.60843">
        <ele>428.6</ele>
        <time>2014-10-08T08:24:13Z</time>
      </trkpt>
      <trkpt lat="43.24146" lon="5.6084">
        <ele>426.5</ele>
        <time>2014-10-08T08:24:16Z</time>
      </trkpt>
      <trkpt lat="43.24143" lon="5.60836">
        <ele>425.8</ele>
        <time>2014-10-08T08:24:19Z</time>
      </trkpt>
      <trkpt lat="43.24139" lon="5.60834">
        <ele>421.3</ele>
        <time>2014-10-08T08:24:22Z</time>
      </trkpt>
      <trkpt lat="43.24136" lon="5.60832">
        <ele>418.1</ele>
        <time>2014-10-08T08:24:24Z</time>
      </trkpt>
      <trkpt lat="43.24132" lon="5.6083">
        <ele>416</ele>
        <time>2014-10-08T08:24:27Z</time>
      </trkpt>
      <trkpt lat="43.24129" lon="5.60827">
        <ele>415.2</ele>
        <time>2014-10-08T08:24:30Z</time>
      </trkpt>
      <trkpt lat="43.24127" lon="5.60825">
        <ele>414</ele>
        <time>2014-10-08T08:24:32Z</time>
      </trkpt>
      <trkpt lat="43.24123" lon="5.60821">
        <ele>413.2</ele>
        <time>2014-10-08T08:24:36Z</time>
      </trkpt>
      <trkpt lat="43.24119" lon="5.60819">
        <ele>411.2</ele>
        <time>2014-10-08T08:24:40Z</time>
      </trkpt>
      <trkpt lat="43.24116" lon="5.60816">
        <ele>407.8</ele>
        <time>2014-10-08T08:24:43Z</time>
      </trkpt>
      <trkpt lat="43.24112" lon="5.60813">
        <ele>407.1</ele>
        <time>2014-10-08T08:24:47Z</time>
      </trkpt>
      <trkpt lat="43.24109" lon="5.60811">
        <ele>407.2</ele>
        <time>2014-10-08T08:24:51Z</time>
      </trkpt>
      <trkpt lat="43.24107" lon="5.60806">
        <ele>410.2</ele>
        <time>2014-10-08T08:24:55Z</time>
      </trkpt>
      <trkpt lat="43.24106" lon="5.60804">
        <ele>410.7</ele>
        <time>2014-10-08T08:24:56Z</time>
      </trkpt>
      <trkpt lat="43.24105" lon="5.60796">
        <ele>415.2</ele>
        <time>2014-10-08T08:25:03Z</time>
      </trkpt>
      <trkpt lat="43.24105" lon="5.60792">
        <ele>417.6</ele>
        <time>2014-10-08T08:25:05Z</time>
      </trkpt>
      <trkpt lat="43.24106" lon="5.60786">
        <ele>422.7</ele>
        <time>2014-10-08T08:25:08Z</time>
      </trkpt>
      <trkpt lat="43.24106" lon="5.6078">
        <ele>428.7</ele>
        <time>2014-10-08T08:25:11Z</time>
      </trkpt>
      <trkpt lat="43.24105" lon="5.60774">
        <ele>433.1</ele>
        <time>2014-10-08T08:25:15Z</time>
      </trkpt>
      <trkpt lat="43.24101" lon="5.60771">
        <ele>432.2</ele>
        <time>2014-10-08T08:25:19Z</time>
      </trkpt>
      <trkpt lat="43.24099" lon="5.60769">
        <ele>430</ele>
        <time>2014-10-08T08:25:22Z</time>
      </trkpt>
      <trkpt lat="43.24095" lon="5.60767">
        <ele>426.7</ele>
        <time>2014-10-08T08:25:25Z</time>
      </trkpt>
      <trkpt lat="43.2409" lon="5.60765">
        <ele>422.2</ele>
        <time>2014-10-08T08:25:29Z</time>
      </trkpt>
      <trkpt lat="43.24087" lon="5.60762">
        <ele>422.3</ele>
        <time>2014-10-08T08:25:33Z</time>
      </trkpt>
      <trkpt lat="43.24083" lon="5.6076">
        <ele>420.7</ele>
        <time>2014-10-08T08:25:36Z</time>
      </trkpt>
      <trkpt lat="43.24079" lon="5.60758">
        <ele>417.3</ele>
        <time>2014-10-08T08:25:39Z</time>
      </trkpt>
      <trkpt lat="43.24075" lon="5.60757">
        <ele>415.3</ele>
        <time>2014-10-08T08:25:42Z</time>
      </trkpt>
      <trkpt lat="43.24072" lon="5.60755">
        <ele>414.2</ele>
        <time>2014-10-08T08:25:45Z</time>
      </trkpt>
      <trkpt lat="43.24067" lon="5.60755">
        <ele>409.5</ele>
        <time>2014-10-08T08:25:48Z</time>
      </trkpt>
      <trkpt lat="43.24063" lon="5.60755">
        <ele>405.2</ele>
        <time>2014-10-08T08:25:51Z</time>
      </trkpt>
      <trkpt lat="43.24062" lon="5.60749">
        <ele>406.7</ele>
        <time>2014-10-08T08:25:56Z</time>
      </trkpt>
      <trkpt lat="43.24062" lon="5.60748">
        <ele>406.7</ele>
        <time>2014-10-08T08:25:57Z</time>
      </trkpt>
      <trkpt lat="43.24068" lon="5.60743">
        <ele>414.2</ele>
        <time>2014-10-08T08:26:53Z</time>
      </trkpt>
      <trkpt lat="43.24071" lon="5.6074">
        <ele>418.1</ele>
        <time>2014-10-08T08:27:09Z</time>
      </trkpt>
      <trkpt lat="43.24072" lon="5.60739">
        <ele>418.6</ele>
        <time>2014-10-08T08:27:10Z</time>
      </trkpt>
      <trkpt lat="43.24078" lon="5.60746">
        <ele>416.1</ele>
        <time>2014-10-08T08:27:24Z</time>
      </trkpt>
      <trkpt lat="43.24081" lon="5.6075">
        <ele>419.1</ele>
        <time>2014-10-08T08:27:28Z</time>
      </trkpt>
      <trkpt lat="43.24084" lon="5.60752">
        <ele>420</ele>
        <time>2014-10-08T08:27:32Z</time>
      </trkpt>
      <trkpt lat="43.24088" lon="5.60753">
        <ele>419.3</ele>
        <time>2014-10-08T08:27:36Z</time>
      </trkpt>
      <trkpt lat="43.24092" lon="5.60754">
        <ele>419.7</ele>
        <time>2014-10-08T08:27:41Z</time>
      </trkpt>
      <trkpt lat="43.24095" lon="5.60755">
        <ele>418.5</ele>
        <time>2014-10-08T08:27:44Z</time>
      </trkpt>
      <trkpt lat="43.24099" lon="5.60756">
        <ele>419</ele>
        <time>2014-10-08T08:27:47Z</time>
      </trkpt>
      <trkpt lat="43.24102" lon="5.60755">
        <ele>419.5</ele>
        <time>2014-10-08T08:27:49Z</time>
      </trkpt>
      <trkpt lat="43.24106" lon="5.60755">
        <ele>418</ele>
        <time>2014-10-08T08:27:52Z</time>
      </trkpt>
      <trkpt lat="43.2411" lon="5.60755">
        <ele>418.1</ele>
        <time>2014-10-08T08:27:54Z</time>
      </trkpt>
      <trkpt lat="43.24114" lon="5.60753">
        <ele>418.5</ele>
        <time>2014-10-08T08:27:57Z</time>
      </trkpt>
      <trkpt lat="43.24118" lon="5.60751">
        <ele>417.1</ele>
        <time>2014-10-08T08:28:01Z</time>
      </trkpt>
      <trkpt lat="43.24122" lon="5.60751">
        <ele>411</ele>
        <time>2014-10-08T08:28:11Z</time>
      </trkpt>
      <trkpt lat="43.24122" lon="5.60751">
        <ele>410.3</ele>
        <time>2014-10-08T08:28:12Z</time>
      </trkpt>
      <trkpt lat="43.24129" lon="5.60746">
        <ele>405.3</ele>
        <time>2014-10-08T08:28:46Z</time>
      </trkpt>
      <trkpt lat="43.2413" lon="5.6074">
        <ele>405.1</ele>
        <time>2014-10-08T08:28:50Z</time>
      </trkpt>
      <trkpt lat="43.2413" lon="5.60734">
        <ele>400.2</ele>
        <time>2014-10-08T08:28:55Z</time>
      </trkpt>
      <trkpt lat="43.24129" lon="5.60729">
        <ele>398.3</ele>
        <time>2014-10-08T08:29:01Z</time>
      </trkpt>
      <trkpt lat="43.24127" lon="5.60724">
        <ele>398.3</ele>
        <time>2014-10-08T08:29:04Z</time>
      </trkpt>
      <trkpt lat="43.24126" lon="5.60719">
        <ele>398.2</ele>
        <time>2014-10-08T08:29:07Z</time>
      </trkpt>
      <trkpt lat="43.24125" lon="5.60713">
        <ele>396.8</ele>
        <time>2014-10-08T08:29:11Z</time>
      </trkpt>
      <trkpt lat="43.24123" lon="5.60709">
        <ele>395.7</ele>
        <time>2014-10-08T08:29:14Z</time>
      </trkpt>
      <trkpt lat="43.24122" lon="5.60708">
        <ele>395.7</ele>
        <time>2014-10-08T08:29:15Z</time>
      </trkpt>
      <trkpt lat="43.24118" lon="5.60702">
        <ele>394.2</ele>
        <time>2014-10-08T08:29:20Z</time>
      </trkpt>
      <trkpt lat="43.24115" lon="5.60699">
        <ele>394.7</ele>
        <time>2014-10-08T08:29:23Z</time>
      </trkpt>
      <trkpt lat="43.24112" lon="5.60697">
        <ele>395.7</ele>
        <time>2014-10-08T08:29:26Z</time>
      </trkpt>
      <trkpt lat="43.24108" lon="5.60697">
        <ele>395.3</ele>
        <time>2014-10-08T08:29:29Z</time>
      </trkpt>
      <trkpt lat="43.24104" lon="5.607">
        <ele>395.2</ele>
        <time>2014-10-08T08:29:33Z</time>
      </trkpt>
      <trkpt lat="43.24102" lon="5.60704">
        <ele>395.1</ele>
        <time>2014-10-08T08:29:37Z</time>
      </trkpt>
      <trkpt lat="43.24099" lon="5.60708">
        <ele>394.6</ele>
        <time>2014-10-08T08:29:41Z</time>
      </trkpt>
      <trkpt lat="43.24096" lon="5.60713">
        <ele>393.8</ele>
        <time>2014-10-08T08:29:45Z</time>
      </trkpt>
      <trkpt lat="43.24094" lon="5.60717">
        <ele>393.7</ele>
        <time>2014-10-08T08:29:50Z</time>
      </trkpt>
      <trkpt lat="43.24091" lon="5.60718">
        <ele>394.6</ele>
        <time>2014-10-08T08:29:53Z</time>
      </trkpt>
      <trkpt lat="43.24086" lon="5.60716">
        <ele>396.5</ele>
        <time>2014-10-08T08:29:57Z</time>
      </trkpt>
      <trkpt lat="43.24084" lon="5.60714">
        <ele>398.6</ele>
        <time>2014-10-08T08:30:00Z</time>
      </trkpt>
      <trkpt lat="43.2408" lon="5.60711">
        <ele>398.8</ele>
        <time>2014-10-08T08:30:03Z</time>
      </trkpt>
      <trkpt lat="43.24077" lon="5.60707">
        <ele>399.2</ele>
        <time>2014-10-08T08:30:08Z</time>
      </trkpt>
      <trkpt lat="43.24073" lon="5.60705">
        <ele>399.3</ele>
        <time>2014-10-08T08:30:11Z</time>
      </trkpt>
      <trkpt lat="43.24071" lon="5.60702">
        <ele>399.8</ele>
        <time>2014-10-08T08:30:13Z</time>
      </trkpt>
      <trkpt lat="43.24068" lon="5.607">
        <ele>400.3</ele>
        <time>2014-10-08T08:30:15Z</time>
      </trkpt>
      <trkpt lat="43.24067" lon="5.60698">
        <ele>400.8</ele>
        <time>2014-10-08T08:30:16Z</time>
      </trkpt>
      <trkpt lat="43.24062" lon="5.60697">
        <ele>401.2</ele>
        <time>2014-10-08T08:30:20Z</time>
      </trkpt>
      <trkpt lat="43.24058" lon="5.60698">
        <ele>400.1</ele>
        <time>2014-10-08T08:30:24Z</time>
      </trkpt>
      <trkpt lat="43.24054" lon="5.60697">
        <ele>400.6</ele>
        <time>2014-10-08T08:30:28Z</time>
      </trkpt>
      <trkpt lat="43.2405" lon="5.60698">
        <ele>400.1</ele>
        <time>2014-10-08T08:30:32Z</time>
      </trkpt>
      <trkpt lat="43.24046" lon="5.60696">
        <ele>400.5</ele>
        <time>2014-10-08T08:30:35Z</time>
      </trkpt>
      <trkpt lat="43.24042" lon="5.60695">
        <ele>401.1</ele>
        <time>2014-10-08T08:30:38Z</time>
      </trkpt>
      <trkpt lat="43.24038" lon="5.60697">
        <ele>400.1</ele>
        <time>2014-10-08T08:30:42Z</time>
      </trkpt>
      <trkpt lat="43.24034" lon="5.60696">
        <ele>400.2</ele>
        <time>2014-10-08T08:30:45Z</time>
      </trkpt>
      <trkpt lat="43.2403" lon="5.60696">
        <ele>398.8</ele>
        <time>2014-10-08T08:30:49Z</time>
      </trkpt>
      <trkpt lat="43.24026" lon="5.60694">
        <ele>397.7</ele>
        <time>2014-10-08T08:30:55Z</time>
      </trkpt>
      <trkpt lat="43.24022" lon="5.60692">
        <ele>396.1</ele>
        <time>2014-10-08T08:31:00Z</time>
      </trkpt>
      <trkpt lat="43.2402" lon="5.60689">
        <ele>396.5</ele>
        <time>2014-10-08T08:31:02Z</time>
      </trkpt>
      <trkpt lat="43.24018" lon="5.60686">
        <ele>397</ele>
        <time>2014-10-08T08:31:04Z</time>
      </trkpt>
      <trkpt lat="43.24014" lon="5.60683">
        <ele>396.2</ele>
        <time>2014-10-08T08:31:07Z</time>
      </trkpt>
      <trkpt lat="43.24011" lon="5.60681">
        <ele>396.5</ele>
        <time>2014-10-08T08:31:11Z</time>
      </trkpt>
      <trkpt lat="43.24008" lon="5.60677">
        <ele>399.2</ele>
        <time>2014-10-08T08:31:15Z</time>
      </trkpt>
      <trkpt lat="43.24004" lon="5.60675">
        <ele>399.8</ele>
        <time>2014-10-08T08:31:19Z</time>
      </trkpt>
      <trkpt lat="43.24003" lon="5.60674">
        <ele>400</ele>
        <time>2014-10-08T08:31:20Z</time>
      </trkpt>
      <trkpt lat="43.23997" lon="5.60672">
        <ele>399.1</ele>
        <time>2014-10-08T08:31:26Z</time>
      </trkpt>
      <trkpt lat="43.23993" lon="5.6067">
        <ele>398.7</ele>
        <time>2014-10-08T08:31:29Z</time>
      </trkpt>
      <trkpt lat="43.2399" lon="5.60668">
        <ele>399.5</ele>
        <time>2014-10-08T08:31:32Z</time>
      </trkpt>
      <trkpt lat="43.23987" lon="5.60665">
        <ele>399.6</ele>
        <time>2014-10-08T08:31:36Z</time>
      </trkpt>
      <trkpt lat="43.23983" lon="5.60662">
        <ele>398.2</ele>
        <time>2014-10-08T08:31:40Z</time>
      </trkpt>
      <trkpt lat="43.23979" lon="5.60659">
        <ele>396.7</ele>
        <time>2014-10-08T08:31:46Z</time>
      </trkpt>
      <trkpt lat="43.23976" lon="5.60655">
        <ele>396.8</ele>
        <time>2014-10-08T08:31:49Z</time>
      </trkpt>
      <trkpt lat="43.23973" lon="5.60653">
        <ele>396.7</ele>
        <time>2014-10-08T08:31:53Z</time>
      </trkpt>
      <trkpt lat="43.2397" lon="5.6065">
        <ele>397.1</ele>
        <time>2014-10-08T08:31:57Z</time>
      </trkpt>
      <trkpt lat="43.23968" lon="5.60645">
        <ele>396.8</ele>
        <time>2014-10-08T08:32:01Z</time>
      </trkpt>
      <trkpt lat="43.23965" lon="5.60641">
        <ele>396</ele>
        <time>2014-10-08T08:32:04Z</time>
      </trkpt>
      <trkpt lat="43.23961" lon="5.60638">
        <ele>395.3</ele>
        <time>2014-10-08T08:32:08Z</time>
      </trkpt>
      <trkpt lat="43.23959" lon="5.60636">
        <ele>394.7</ele>
        <time>2014-10-08T08:32:11Z</time>
      </trkpt>
      <trkpt lat="43.23956" lon="5.60633">
        <ele>393.7</ele>
        <time>2014-10-08T08:32:14Z</time>
      </trkpt>
      <trkpt lat="43.23952" lon="5.60629">
        <ele>393</ele>
        <time>2014-10-08T08:32:17Z</time>
      </trkpt>
      <trkpt lat="43.23949" lon="5.60627">
        <ele>392.2</ele>
        <time>2014-10-08T08:32:20Z</time>
      </trkpt>
      <trkpt lat="43.23949" lon="5.60626">
        <ele>392.1</ele>
        <time>2014-10-08T08:32:21Z</time>
      </trkpt>
      <trkpt lat="43.23943" lon="5.60621">
        <ele>389.7</ele>
        <time>2014-10-08T08:32:27Z</time>
      </trkpt>
      <trkpt lat="43.23939" lon="5.60618">
        <ele>389.6</ele>
        <time>2014-10-08T08:32:31Z</time>
      </trkpt>
      <trkpt lat="43.23937" lon="5.60614">
        <ele>390.1</ele>
        <time>2014-10-08T08:32:35Z</time>
      </trkpt>
      <trkpt lat="43.23935" lon="5.60611">
        <ele>390.5</ele>
        <time>2014-10-08T08:32:38Z</time>
      </trkpt>
      <trkpt lat="43.23933" lon="5.60606">
        <ele>391.2</ele>
        <time>2014-10-08T08:32:42Z</time>
      </trkpt>
      <trkpt lat="43.23931" lon="5.606">
        <ele>392.2</ele>
        <time>2014-10-08T08:32:47Z</time>
      </trkpt>
      <trkpt lat="43.23928" lon="5.60596">
        <ele>391.7</ele>
        <time>2014-10-08T08:32:51Z</time>
      </trkpt>
      <trkpt lat="43.23927" lon="5.60591">
        <ele>393.8</ele>
        <time>2014-10-08T08:32:55Z</time>
      </trkpt>
      <trkpt lat="43.23927" lon="5.60588">
        <ele>397.7</ele>
        <time>2014-10-08T08:32:57Z</time>
      </trkpt>
      <trkpt lat="43.23928" lon="5.60582">
        <ele>408.2</ele>
        <time>2014-10-08T08:32:59Z</time>
      </trkpt>
      <trkpt lat="43.23928" lon="5.60577">
        <ele>415.7</ele>
        <time>2014-10-08T08:33:01Z</time>
      </trkpt>
      <trkpt lat="43.23928" lon="5.60573">
        <ele>421.2</ele>
        <time>2014-10-08T08:33:03Z</time>
      </trkpt>
      <trkpt lat="43.23927" lon="5.60568">
        <ele>428.6</ele>
        <time>2014-10-08T08:33:06Z</time>
      </trkpt>
      <trkpt lat="43.23925" lon="5.60564">
        <ele>434.5</ele>
        <time>2014-10-08T08:33:10Z</time>
      </trkpt>
      <trkpt lat="43.23922" lon="5.60562">
        <ele>430</ele>
        <time>2014-10-08T08:33:13Z</time>
      </trkpt>
      <trkpt lat="43.23918" lon="5.60561">
        <ele>425</ele>
        <time>2014-10-08T08:33:17Z</time>
      </trkpt>
      <trkpt lat="43.23914" lon="5.6056">
        <ele>419.8</ele>
        <time>2014-10-08T08:33:20Z</time>
      </trkpt>
      <trkpt lat="43.23911" lon="5.60558">
        <ele>416.1</ele>
        <time>2014-10-08T08:33:23Z</time>
      </trkpt>
      <trkpt lat="43.2391" lon="5.60558">
        <ele>413.3</ele>
        <time>2014-10-08T08:33:24Z</time>
      </trkpt>
      <trkpt lat="43.23904" lon="5.60557">
        <ele>402.6</ele>
        <time>2014-10-08T08:33:30Z</time>
      </trkpt>
      <trkpt lat="43.239" lon="5.60554">
        <ele>397.1</ele>
        <time>2014-10-08T08:33:33Z</time>
      </trkpt>
      <trkpt lat="43.23897" lon="5.6055">
        <ele>394.3</ele>
        <time>2014-10-08T08:33:37Z</time>
      </trkpt>
      <trkpt lat="43.23894" lon="5.60546">
        <ele>390.8</ele>
        <time>2014-10-08T08:33:42Z</time>
      </trkpt>
      <trkpt lat="43.23892" lon="5.60542">
        <ele>392</ele>
        <time>2014-10-08T08:33:46Z</time>
      </trkpt>
      <trkpt lat="43.2389" lon="5.60537">
        <ele>394</ele>
        <time>2014-10-08T08:33:49Z</time>
      </trkpt>
      <trkpt lat="43.23887" lon="5.60533">
        <ele>391.8</ele>
        <time>2014-10-08T08:33:52Z</time>
      </trkpt>
      <trkpt lat="43.23884" lon="5.60529">
        <ele>389.8</ele>
        <time>2014-10-08T08:33:55Z</time>
      </trkpt>
      <trkpt lat="43.23881" lon="5.60526">
        <ele>389.2</ele>
        <time>2014-10-08T08:33:59Z</time>
      </trkpt>
      <trkpt lat="43.23877" lon="5.60523">
        <ele>387.2</ele>
        <time>2014-10-08T08:34:03Z</time>
      </trkpt>
      <trkpt lat="43.23873" lon="5.60519">
        <ele>385.5</ele>
        <time>2014-10-08T08:34:07Z</time>
      </trkpt>
      <trkpt lat="43.23872" lon="5.60515">
        <ele>390</ele>
        <time>2014-10-08T08:34:10Z</time>
      </trkpt>
      <trkpt lat="43.23869" lon="5.60511">
        <ele>388.2</ele>
        <time>2014-10-08T08:34:14Z</time>
      </trkpt>
      <trkpt lat="43.23866" lon="5.60508">
        <ele>385.6</ele>
        <time>2014-10-08T08:34:17Z</time>
      </trkpt>
      <trkpt lat="43.23863" lon="5.60506">
        <ele>381</ele>
        <time>2014-10-08T08:34:20Z</time>
      </trkpt>
      <trkpt lat="43.2386" lon="5.60503">
        <ele>376.1</ele>
        <time>2014-10-08T08:34:23Z</time>
      </trkpt>
      <trkpt lat="43.23857" lon="5.605">
        <ele>371.1</ele>
        <time>2014-10-08T08:34:27Z</time>
      </trkpt>
      <trkpt lat="43.23856" lon="5.60499">
        <ele>369.7</ele>
        <time>2014-10-08T08:34:28Z</time>
      </trkpt>
      <trkpt lat="43.23852" lon="5.60492">
        <ele>363.3</ele>
        <time>2014-10-08T08:34:34Z</time>
      </trkpt>
      <trkpt lat="43.2385" lon="5.60487">
        <ele>362.3</ele>
        <time>2014-10-08T08:34:38Z</time>
      </trkpt>
      <trkpt lat="43.23848" lon="5.60481">
        <ele>366</ele>
        <time>2014-10-08T08:34:42Z</time>
      </trkpt>
      <trkpt lat="43.23848" lon="5.60477">
        <ele>369.1</ele>
        <time>2014-10-08T08:34:45Z</time>
      </trkpt>
      <trkpt lat="43.23845" lon="5.60473">
        <ele>368.3</ele>
        <time>2014-10-08T08:34:48Z</time>
      </trkpt>
      <trkpt lat="43.23843" lon="5.60469">
        <ele>367.5</ele>
        <time>2014-10-08T08:34:52Z</time>
      </trkpt>
      <trkpt lat="43.23841" lon="5.60464">
        <ele>368.1</ele>
        <time>2014-10-08T08:34:56Z</time>
      </trkpt>
      <trkpt lat="43.23839" lon="5.60459">
        <ele>367.8</ele>
        <time>2014-10-08T08:35:00Z</time>
      </trkpt>
      <trkpt lat="43.23835" lon="5.60455">
        <ele>364.7</ele>
        <time>2014-10-08T08:35:03Z</time>
      </trkpt>
      <trkpt lat="43.23833" lon="5.60451">
        <ele>362.3</ele>
        <time>2014-10-08T08:35:09Z</time>
      </trkpt>
      <trkpt lat="43.2383" lon="5.60446">
        <ele>361.7</ele>
        <time>2014-10-08T08:35:13Z</time>
      </trkpt>
      <trkpt lat="43.23828" lon="5.60442">
        <ele>360.1</ele>
        <time>2014-10-08T08:35:17Z</time>
      </trkpt>
      <trkpt lat="43.23826" lon="5.60437">
        <ele>358.7</ele>
        <time>2014-10-08T08:35:21Z</time>
      </trkpt>
      <trkpt lat="43.23824" lon="5.60432">
        <ele>358</ele>
        <time>2014-10-08T08:35:25Z</time>
      </trkpt>
      <trkpt lat="43.23821" lon="5.60427">
        <ele>356.3</ele>
        <time>2014-10-08T08:35:28Z</time>
      </trkpt>
      <trkpt lat="43.2382" lon="5.60426">
        <ele>353.5</ele>
        <time>2014-10-08T08:35:29Z</time>
      </trkpt>
      <trkpt lat="43.23816" lon="5.60419">
        <ele>350.6</ele>
        <time>2014-10-08T08:35:36Z</time>
      </trkpt>
      <trkpt lat="43.23814" lon="5.60414">
        <ele>351.7</ele>
        <time>2014-10-08T08:35:41Z</time>
      </trkpt>
      <trkpt lat="43.23811" lon="5.6041">
        <ele>351.7</ele>
        <time>2014-10-08T08:35:45Z</time>
      </trkpt>
      <trkpt lat="43.23809" lon="5.60406">
        <ele>348.2</ele>
        <time>2014-10-08T08:35:48Z</time>
      </trkpt>
      <trkpt lat="43.23806" lon="5.60402">
        <ele>344.6</ele>
        <time>2014-10-08T08:35:51Z</time>
      </trkpt>
      <trkpt lat="43.23804" lon="5.60398">
        <ele>341.7</ele>
        <time>2014-10-08T08:35:54Z</time>
      </trkpt>
      <trkpt lat="43.23802" lon="5.60392">
        <ele>342.6</ele>
        <time>2014-10-08T08:35:58Z</time>
      </trkpt>
      <trkpt lat="43.23802" lon="5.60386">
        <ele>343.7</ele>
        <time>2014-10-08T08:36:03Z</time>
      </trkpt>
      <trkpt lat="43.23802" lon="5.60381">
        <ele>345.2</ele>
        <time>2014-10-08T08:36:07Z</time>
      </trkpt>
      <trkpt lat="43.23803" lon="5.60377">
        <ele>347.6</ele>
        <time>2014-10-08T08:36:10Z</time>
      </trkpt>
      <trkpt lat="43.23807" lon="5.60373">
        <ele>351.7</ele>
        <time>2014-10-08T08:36:13Z</time>
      </trkpt>
      <trkpt lat="43.2381" lon="5.60371">
        <ele>353.2</ele>
        <time>2014-10-08T08:36:15Z</time>
      </trkpt>
      <trkpt lat="43.23813" lon="5.60366">
        <ele>355.6</ele>
        <time>2014-10-08T08:36:19Z</time>
      </trkpt>
      <trkpt lat="43.23817" lon="5.60364">
        <ele>360</ele>
        <time>2014-10-08T08:36:23Z</time>
      </trkpt>
      <trkpt lat="43.2382" lon="5.60366">
        <ele>364.5</ele>
        <time>2014-10-08T08:36:28Z</time>
      </trkpt>
      <trkpt lat="43.23824" lon="5.60367">
        <ele>368.7</ele>
        <time>2014-10-08T08:36:32Z</time>
      </trkpt>
      <trkpt lat="43.23825" lon="5.60367">
        <ele>369.2</ele>
        <time>2014-10-08T08:36:33Z</time>
      </trkpt>
      <trkpt lat="43.23831" lon="5.6037">
        <ele>376.3</ele>
        <time>2014-10-08T08:36:42Z</time>
      </trkpt>
      <trkpt lat="43.23834" lon="5.60369">
        <ele>379.7</ele>
        <time>2014-10-08T08:36:45Z</time>
      </trkpt>
      <trkpt lat="43.23838" lon="5.6037">
        <ele>380.2</ele>
        <time>2014-10-08T08:36:50Z</time>
      </trkpt>
      <trkpt lat="43.23841" lon="5.60368">
        <ele>379.2</ele>
        <time>2014-10-08T08:36:52Z</time>
      </trkpt>
      <trkpt lat="43.23845" lon="5.60364">
        <ele>377.8</ele>
        <time>2014-10-08T08:36:55Z</time>
      </trkpt>
      <trkpt lat="43.23848" lon="5.60361">
        <ele>377.2</ele>
        <time>2014-10-08T08:36:59Z</time>
      </trkpt>
      <trkpt lat="43.23851" lon="5.60359">
        <ele>376.2</ele>
        <time>2014-10-08T08:37:02Z</time>
      </trkpt>
      <trkpt lat="43.23854" lon="5.60355">
        <ele>376</ele>
        <time>2014-10-08T08:37:04Z</time>
      </trkpt>
      <trkpt lat="43.23857" lon="5.60351">
        <ele>375.7</ele>
        <time>2014-10-08T08:37:07Z</time>
      </trkpt>
      <trkpt lat="43.2386" lon="5.60349">
        <ele>375.3</ele>
        <time>2014-10-08T08:37:10Z</time>
      </trkpt>
      <trkpt lat="43.23863" lon="5.60347">
        <ele>376.3</ele>
        <time>2014-10-08T08:37:13Z</time>
      </trkpt>
      <trkpt lat="43.23866" lon="5.60343">
        <ele>374.3</ele>
        <time>2014-10-08T08:37:15Z</time>
      </trkpt>
      <trkpt lat="43.23869" lon="5.60339">
        <ele>373.3</ele>
        <time>2014-10-08T08:37:18Z</time>
      </trkpt>
      <trkpt lat="43.23872" lon="5.60337">
        <ele>373.3</ele>
        <time>2014-10-08T08:37:21Z</time>
      </trkpt>
      <trkpt lat="43.23875" lon="5.60335">
        <ele>373.1</ele>
        <time>2014-10-08T08:37:24Z</time>
      </trkpt>
      <trkpt lat="43.23879" lon="5.60332">
        <ele>371.5</ele>
        <time>2014-10-08T08:37:27Z</time>
      </trkpt>
      <trkpt lat="43.23883" lon="5.6033">
        <ele>373.5</ele>
        <time>2014-10-08T08:37:32Z</time>
      </trkpt>
      <trkpt lat="43.23886" lon="5.60328">
        <ele>373.6</ele>
        <time>2014-10-08T08:37:36Z</time>
      </trkpt>
      <trkpt lat="43.23887" lon="5.60328">
        <ele>373.7</ele>
        <time>2014-10-08T08:37:37Z</time>
      </trkpt>
      <trkpt lat="43.23894" lon="5.60325">
        <ele>374.5</ele>
        <time>2014-10-08T08:37:43Z</time>
      </trkpt>
      <trkpt lat="43.23897" lon="5.60323">
        <ele>373.8</ele>
        <time>2014-10-08T08:37:45Z</time>
      </trkpt>
      <trkpt lat="43.239" lon="5.60319">
        <ele>374.1</ele>
        <time>2014-10-08T08:37:48Z</time>
      </trkpt>
      <trkpt lat="43.23904" lon="5.60318">
        <ele>374.5</ele>
        <time>2014-10-08T08:37:51Z</time>
      </trkpt>
      <trkpt lat="43.23906" lon="5.60315">
        <ele>373.6</ele>
        <time>2014-10-08T08:37:53Z</time>
      </trkpt>
      <trkpt lat="43.23909" lon="5.60311">
        <ele>374</ele>
        <time>2014-10-08T08:37:56Z</time>
      </trkpt>
      <trkpt lat="43.23913" lon="5.60308">
        <ele>373.6</ele>
        <time>2014-10-08T08:37:59Z</time>
      </trkpt>
      <trkpt lat="43.23916" lon="5.60306">
        <ele>373.2</ele>
        <time>2014-10-08T08:38:02Z</time>
      </trkpt>
      <trkpt lat="43.23919" lon="5.60303">
        <ele>372.3</ele>
        <time>2014-10-08T08:38:04Z</time>
      </trkpt>
      <trkpt lat="43.23922" lon="5.603">
        <ele>372.2</ele>
        <time>2014-10-08T08:38:07Z</time>
      </trkpt>
      <trkpt lat="43.23924" lon="5.60297">
        <ele>372.6</ele>
        <time>2014-10-08T08:38:10Z</time>
      </trkpt>
      <trkpt lat="43.23928" lon="5.60295">
        <ele>371.2</ele>
        <time>2014-10-08T08:38:13Z</time>
      </trkpt>
      <trkpt lat="43.23931" lon="5.60292">
        <ele>370.2</ele>
        <time>2014-10-08T08:38:17Z</time>
      </trkpt>
      <trkpt lat="43.23934" lon="5.6029">
        <ele>368.7</ele>
        <time>2014-10-08T08:38:21Z</time>
      </trkpt>
      <trkpt lat="43.23938" lon="5.60287">
        <ele>368.7</ele>
        <time>2014-10-08T08:38:24Z</time>
      </trkpt>
      <trkpt lat="43.23941" lon="5.60285">
        <ele>368.2</ele>
        <time>2014-10-08T08:38:27Z</time>
      </trkpt>
      <trkpt lat="43.23944" lon="5.60282">
        <ele>368</ele>
        <time>2014-10-08T08:38:30Z</time>
      </trkpt>
      <trkpt lat="43.23947" lon="5.60279">
        <ele>367.8</ele>
        <time>2014-10-08T08:38:35Z</time>
      </trkpt>
      <trkpt lat="43.2395" lon="5.60276">
        <ele>367.8</ele>
        <time>2014-10-08T08:38:38Z</time>
      </trkpt>
      <trkpt lat="43.23951" lon="5.60275">
        <ele>367.8</ele>
        <time>2014-10-08T08:38:39Z</time>
      </trkpt>
      <trkpt lat="43.23956" lon="5.60271">
        <ele>369.6</ele>
        <time>2014-10-08T08:38:44Z</time>
      </trkpt>
      <trkpt lat="43.23959" lon="5.60268">
        <ele>370.3</ele>
        <time>2014-10-08T08:38:47Z</time>
      </trkpt>
      <trkpt lat="43.23962" lon="5.60266">
        <ele>370.7</ele>
        <time>2014-10-08T08:38:50Z</time>
      </trkpt>
      <trkpt lat="43.23966" lon="5.60262">
        <ele>370.7</ele>
        <time>2014-10-08T08:38:54Z</time>
      </trkpt>
      <trkpt lat="43.23969" lon="5.60259">
        <ele>370.1</ele>
        <time>2014-10-08T08:38:58Z</time>
      </trkpt>
      <trkpt lat="43.23972" lon="5.60256">
        <ele>370.1</ele>
        <time>2014-10-08T08:39:01Z</time>
      </trkpt>
      <trkpt lat="43.23976" lon="5.60254">
        <ele>370.6</ele>
        <time>2014-10-08T08:39:04Z</time>
      </trkpt>
      <trkpt lat="43.23979" lon="5.60251">
        <ele>372.3</ele>
        <time>2014-10-08T08:39:06Z</time>
      </trkpt>
      <trkpt lat="43.23982" lon="5.60247">
        <ele>372.3</ele>
        <time>2014-10-08T08:39:10Z</time>
      </trkpt>
      <trkpt lat="43.23984" lon="5.60243">
        <ele>369.6</ele>
        <time>2014-10-08T08:39:14Z</time>
      </trkpt>
      <trkpt lat="43.23986" lon="5.60238">
        <ele>369.5</ele>
        <time>2014-10-08T08:39:18Z</time>
      </trkpt>
      <trkpt lat="43.23988" lon="5.60234">
        <ele>370.7</ele>
        <time>2014-10-08T08:39:21Z</time>
      </trkpt>
      <trkpt lat="43.23991" lon="5.6023">
        <ele>373.3</ele>
        <time>2014-10-08T08:39:24Z</time>
      </trkpt>
      <trkpt lat="43.23992" lon="5.60226">
        <ele>376.1</ele>
        <time>2014-10-08T08:39:27Z</time>
      </trkpt>
      <trkpt lat="43.23994" lon="5.6022">
        <ele>378</ele>
        <time>2014-10-08T08:39:31Z</time>
      </trkpt>
      <trkpt lat="43.23995" lon="5.60216">
        <ele>380.1</ele>
        <time>2014-10-08T08:39:34Z</time>
      </trkpt>
      <trkpt lat="43.23997" lon="5.60212">
        <ele>380.7</ele>
        <time>2014-10-08T08:39:37Z</time>
      </trkpt>
      <trkpt lat="43.23997" lon="5.60207">
        <ele>379.7</ele>
        <time>2014-10-08T08:39:40Z</time>
      </trkpt>
      <trkpt lat="43.23997" lon="5.60206">
        <ele>379.6</ele>
        <time>2014-10-08T08:39:41Z</time>
      </trkpt>
      <trkpt lat="43.23999" lon="5.60195">
        <ele>377.7</ele>
        <time>2014-10-08T08:39:48Z</time>
      </trkpt>
      <trkpt lat="43.24001" lon="5.60191">
        <ele>377.2</ele>
        <time>2014-10-08T08:39:51Z</time>
      </trkpt>
      <trkpt lat="43.24002" lon="5.60185">
        <ele>376.7</ele>
        <time>2014-10-08T08:39:54Z</time>
      </trkpt>
      <trkpt lat="43.24003" lon="5.60181">
        <ele>377.2</ele>
        <time>2014-10-08T08:39:57Z</time>
      </trkpt>
      <trkpt lat="43.24004" lon="5.60175">
        <ele>377.6</ele>
        <time>2014-10-08T08:40:01Z</time>
      </trkpt>
      <trkpt lat="43.24005" lon="5.60169">
        <ele>376.1</ele>
        <time>2014-10-08T08:40:04Z</time>
      </trkpt>
      <trkpt lat="43.24007" lon="5.60165">
        <ele>377</ele>
        <time>2014-10-08T08:40:07Z</time>
      </trkpt>
      <trkpt lat="43.24008" lon="5.60161">
        <ele>377.2</ele>
        <time>2014-10-08T08:40:10Z</time>
      </trkpt>
      <trkpt lat="43.2401" lon="5.60156">
        <ele>377.7</ele>
        <time>2014-10-08T08:40:13Z</time>
      </trkpt>
      <trkpt lat="43.2401" lon="5.60151">
        <ele>377.5</ele>
        <time>2014-10-08T08:40:16Z</time>
      </trkpt>
      <trkpt lat="43.24009" lon="5.60146">
        <ele>375.8</ele>
        <time>2014-10-08T08:40:19Z</time>
      </trkpt>
      <trkpt lat="43.24009" lon="5.60142">
        <ele>374.6</ele>
        <time>2014-10-08T08:40:22Z</time>
      </trkpt>
      <trkpt lat="43.24009" lon="5.60136">
        <ele>373.7</ele>
        <time>2014-10-08T08:40:26Z</time>
      </trkpt>
      <trkpt lat="43.2401" lon="5.6013">
        <ele>374.6</ele>
        <time>2014-10-08T08:40:30Z</time>
      </trkpt>
      <trkpt lat="43.24012" lon="5.60125">
        <ele>376.2</ele>
        <time>2014-10-08T08:40:33Z</time>
      </trkpt>
      <trkpt lat="43.24012" lon="5.60121">
        <ele>377</ele>
        <time>2014-10-08T08:40:36Z</time>
      </trkpt>
      <trkpt lat="43.24013" lon="5.60116">
        <ele>378.6</ele>
        <time>2014-10-08T08:40:39Z</time>
      </trkpt>
      <trkpt lat="43.24014" lon="5.60111">
        <ele>380.3</ele>
        <time>2014-10-08T08:40:42Z</time>
      </trkpt>
      <trkpt lat="43.24014" lon="5.6011">
        <ele>380.6</ele>
        <time>2014-10-08T08:40:43Z</time>
      </trkpt>
      <trkpt lat="43.24015" lon="5.601">
        <ele>381</ele>
        <time>2014-10-08T08:40:49Z</time>
      </trkpt>
      <trkpt lat="43.24014" lon="5.60095">
        <ele>382.6</ele>
        <time>2014-10-08T08:40:52Z</time>
      </trkpt>
      <trkpt lat="43.24012" lon="5.6009">
        <ele>384.2</ele>
        <time>2014-10-08T08:40:55Z</time>
      </trkpt>
      <trkpt lat="43.2401" lon="5.60085">
        <ele>384.7</ele>
        <time>2014-10-08T08:40:58Z</time>
      </trkpt>
      <trkpt lat="43.24008" lon="5.6008">
        <ele>384.2</ele>
        <time>2014-10-08T08:41:02Z</time>
      </trkpt>
      <trkpt lat="43.24006" lon="5.60076">
        <ele>383.1</ele>
        <time>2014-10-08T08:41:06Z</time>
      </trkpt>
      <trkpt lat="43.24004" lon="5.60071">
        <ele>382.8</ele>
        <time>2014-10-08T08:41:16Z</time>
      </trkpt>
      <trkpt lat="43.24001" lon="5.60066">
        <ele>385.8</ele>
        <time>2014-10-08T08:41:29Z</time>
      </trkpt>
      <trkpt lat="43.23999" lon="5.60061">
        <ele>386.5</ele>
        <time>2014-10-08T08:41:35Z</time>
      </trkpt>
      <trkpt lat="43.23997" lon="5.60057">
        <ele>386.8</ele>
        <time>2014-10-08T08:41:45Z</time>
      </trkpt>
      <trkpt lat="43.23996" lon="5.60055">
        <ele>386.6</ele>
        <time>2014-10-08T08:41:46Z</time>
      </trkpt>
      <trkpt lat="43.23995" lon="5.60047">
        <ele>393.7</ele>
        <time>2014-10-08T08:41:50Z</time>
      </trkpt>
      <trkpt lat="43.23994" lon="5.60041">
        <ele>397.8</ele>
        <time>2014-10-08T08:41:53Z</time>
      </trkpt>
      <trkpt lat="43.23993" lon="5.60036">
        <ele>403</ele>
        <time>2014-10-08T08:41:59Z</time>
      </trkpt>
      <trkpt lat="43.23992" lon="5.60031">
        <ele>404.3</ele>
        <time>2014-10-08T08:42:02Z</time>
      </trkpt>
      <trkpt lat="43.2399" lon="5.60026">
        <ele>402.3</ele>
        <time>2014-10-08T08:42:06Z</time>
      </trkpt>
      <trkpt lat="43.23989" lon="5.6002">
        <ele>399.7</ele>
        <time>2014-10-08T08:42:11Z</time>
      </trkpt>
      <trkpt lat="43.23987" lon="5.60015">
        <ele>396.3</ele>
        <time>2014-10-08T08:42:16Z</time>
      </trkpt>
      <trkpt lat="43.23987" lon="5.6001">
        <ele>395.2</ele>
        <time>2014-10-08T08:42:20Z</time>
      </trkpt>
      <trkpt lat="43.23986" lon="5.60005">
        <ele>394.3</ele>
        <time>2014-10-08T08:42:24Z</time>
      </trkpt>
      <trkpt lat="43.23985" lon="5.6">
        <ele>393.2</ele>
        <time>2014-10-08T08:42:28Z</time>
      </trkpt>
      <trkpt lat="43.23983" lon="5.59995">
        <ele>390.5</ele>
        <time>2014-10-08T08:42:31Z</time>
      </trkpt>
      <trkpt lat="43.23982" lon="5.5999">
        <ele>389.2</ele>
        <time>2014-10-08T08:42:35Z</time>
      </trkpt>
      <trkpt lat="43.23981" lon="5.59985">
        <ele>390.5</ele>
        <time>2014-10-08T08:42:38Z</time>
      </trkpt>
      <trkpt lat="43.23979" lon="5.59981">
        <ele>388.1</ele>
        <time>2014-10-08T08:42:41Z</time>
      </trkpt>
      <trkpt lat="43.23978" lon="5.59977">
        <ele>384.6</ele>
        <time>2014-10-08T08:42:44Z</time>
      </trkpt>
      <trkpt lat="43.23975" lon="5.59973">
        <ele>382.6</ele>
        <time>2014-10-08T08:42:47Z</time>
      </trkpt>
      <trkpt lat="43.23975" lon="5.59971">
        <ele>382.7</ele>
        <time>2014-10-08T08:42:48Z</time>
      </trkpt>
      <trkpt lat="43.23972" lon="5.59962">
        <ele>380.6</ele>
        <time>2014-10-08T08:42:54Z</time>
      </trkpt>
      <trkpt lat="43.2397" lon="5.59958">
        <ele>381.1</ele>
        <time>2014-10-08T08:42:57Z</time>
      </trkpt>
      <trkpt lat="43.23968" lon="5.59952">
        <ele>382.7</ele>
        <time>2014-10-08T08:43:00Z</time>
      </trkpt>
      <trkpt lat="43.23967" lon="5.59947">
        <ele>385.1</ele>
        <time>2014-10-08T08:43:03Z</time>
      </trkpt>
      <trkpt lat="43.23965" lon="5.59942">
        <ele>387.8</ele>
        <time>2014-10-08T08:43:06Z</time>
      </trkpt>
      <trkpt lat="43.23963" lon="5.59938">
        <ele>387.3</ele>
        <time>2014-10-08T08:43:09Z</time>
      </trkpt>
      <trkpt lat="43.23961" lon="5.59933">
        <ele>385.8</ele>
        <time>2014-10-08T08:43:13Z</time>
      </trkpt>
      <trkpt lat="43.2396" lon="5.59928">
        <ele>386.2</ele>
        <time>2014-10-08T08:43:16Z</time>
      </trkpt>
      <trkpt lat="43.2396" lon="5.59923">
        <ele>386.1</ele>
        <time>2014-10-08T08:43:19Z</time>
      </trkpt>
      <trkpt lat="43.2396" lon="5.59918">
        <ele>386.1</ele>
        <time>2014-10-08T08:43:22Z</time>
      </trkpt>
      <trkpt lat="43.23961" lon="5.59913">
        <ele>384</ele>
        <time>2014-10-08T08:43:26Z</time>
      </trkpt>
      <trkpt lat="43.2396" lon="5.59907">
        <ele>384.6</ele>
        <time>2014-10-08T08:43:30Z</time>
      </trkpt>
      <trkpt lat="43.23962" lon="5.59903">
        <ele>386</ele>
        <time>2014-10-08T08:43:33Z</time>
      </trkpt>
      <trkpt lat="43.23964" lon="5.59899">
        <ele>385.8</ele>
        <time>2014-10-08T08:43:36Z</time>
      </trkpt>
      <trkpt lat="43.23966" lon="5.59895">
        <ele>385.2</ele>
        <time>2014-10-08T08:43:39Z</time>
      </trkpt>
      <trkpt lat="43.23968" lon="5.59891">
        <ele>385.7</ele>
        <time>2014-10-08T08:43:42Z</time>
      </trkpt>
      <trkpt lat="43.2397" lon="5.59887">
        <ele>385.7</ele>
        <time>2014-10-08T08:43:46Z</time>
      </trkpt>
      <trkpt lat="43.23972" lon="5.59883">
        <ele>385.2</ele>
        <time>2014-10-08T08:43:49Z</time>
      </trkpt>
      <trkpt lat="43.23972" lon="5.59881">
        <ele>385.6</ele>
        <time>2014-10-08T08:43:50Z</time>
      </trkpt>
      <trkpt lat="43.23974" lon="5.59872">
        <ele>386.8</ele>
        <time>2014-10-08T08:43:56Z</time>
      </trkpt>
      <trkpt lat="43.23974" lon="5.59866">
        <ele>384.8</ele>
        <time>2014-10-08T08:44:00Z</time>
      </trkpt>
      <trkpt lat="43.23975" lon="5.59861">
        <ele>384.6</ele>
        <time>2014-10-08T08:44:04Z</time>
      </trkpt>
      <trkpt lat="43.23975" lon="5.59856">
        <ele>384</ele>
        <time>2014-10-08T08:44:08Z</time>
      </trkpt>
      <trkpt lat="43.23976" lon="5.5985">
        <ele>383.7</ele>
        <time>2014-10-08T08:44:12Z</time>
      </trkpt>
      <trkpt lat="43.23976" lon="5.59844">
        <ele>383.2</ele>
        <time>2014-10-08T08:44:16Z</time>
      </trkpt>
      <trkpt lat="43.23976" lon="5.59839">
        <ele>382.6</ele>
        <time>2014-10-08T08:44:20Z</time>
      </trkpt>
      <trkpt lat="43.23976" lon="5.59833">
        <ele>383.1</ele>
        <time>2014-10-08T08:44:24Z</time>
      </trkpt>
      <trkpt lat="43.23975" lon="5.59828">
        <ele>381</ele>
        <time>2014-10-08T08:44:28Z</time>
      </trkpt>
      <trkpt lat="43.23975" lon="5.59822">
        <ele>380.2</ele>
        <time>2014-10-08T08:44:32Z</time>
      </trkpt>
      <trkpt lat="43.23974" lon="5.59817">
        <ele>376.7</ele>
        <time>2014-10-08T08:44:36Z</time>
      </trkpt>
      <trkpt lat="43.23972" lon="5.59812">
        <ele>374.2</ele>
        <time>2014-10-08T08:44:40Z</time>
      </trkpt>
      <trkpt lat="43.23971" lon="5.59808">
        <ele>369.8</ele>
        <time>2014-10-08T08:44:44Z</time>
      </trkpt>
      <trkpt lat="43.23969" lon="5.59803">
        <ele>366</ele>
        <time>2014-10-08T08:44:48Z</time>
      </trkpt>
      <trkpt lat="43.23967" lon="5.59799">
        <ele>364.2</ele>
        <time>2014-10-08T08:44:52Z</time>
      </trkpt>
      <trkpt lat="43.23966" lon="5.59798">
        <ele>363.7</ele>
        <time>2014-10-08T08:44:53Z</time>
      </trkpt>
      <trkpt lat="43.23961" lon="5.5979">
        <ele>366.5</ele>
        <time>2014-10-08T08:45:00Z</time>
      </trkpt>
      <trkpt lat="43.23959" lon="5.59787">
        <ele>365.6</ele>
        <time>2014-10-08T08:45:03Z</time>
      </trkpt>
      <trkpt lat="43.23957" lon="5.59783">
        <ele>364.7</ele>
        <time>2014-10-08T08:45:06Z</time>
      </trkpt>
      <trkpt lat="43.23955" lon="5.59779">
        <ele>363.8</ele>
        <time>2014-10-08T08:45:09Z</time>
      </trkpt>
      <trkpt lat="43.23952" lon="5.59775">
        <ele>363.5</ele>
        <time>2014-10-08T08:45:13Z</time>
      </trkpt>
      <trkpt lat="43.23949" lon="5.59772">
        <ele>362.3</ele>
        <time>2014-10-08T08:45:17Z</time>
      </trkpt>
      <trkpt lat="43.23947" lon="5.59768">
        <ele>361.6</ele>
        <time>2014-10-08T08:45:20Z</time>
      </trkpt>
      <trkpt lat="43.23944" lon="5.59765">
        <ele>360.5</ele>
        <time>2014-10-08T08:45:24Z</time>
      </trkpt>
      <trkpt lat="43.23942" lon="5.5976">
        <ele>361.2</ele>
        <time>2014-10-08T08:45:28Z</time>
      </trkpt>
      <trkpt lat="43.23939" lon="5.59756">
        <ele>361.8</ele>
        <time>2014-10-08T08:45:32Z</time>
      </trkpt>
      <trkpt lat="43.23937" lon="5.59751">
        <ele>362.5</ele>
        <time>2014-10-08T08:45:36Z</time>
      </trkpt>
      <trkpt lat="43.23934" lon="5.59747">
        <ele>362.1</ele>
        <time>2014-10-08T08:45:40Z</time>
      </trkpt>
      <trkpt lat="43.23932" lon="5.59742">
        <ele>361.2</ele>
        <time>2014-10-08T08:45:43Z</time>
      </trkpt>
      <trkpt lat="43.23931" lon="5.59737">
        <ele>363.7</ele>
        <time>2014-10-08T08:45:46Z</time>
      </trkpt>
      <trkpt lat="43.23929" lon="5.59732">
        <ele>364.1</ele>
        <time>2014-10-08T08:45:50Z</time>
      </trkpt>
      <trkpt lat="43.23927" lon="5.59727">
        <ele>365</ele>
        <time>2014-10-08T08:45:55Z</time>
      </trkpt>
      <trkpt lat="43.23927" lon="5.59726">
        <ele>365.1</ele>
        <time>2014-10-08T08:45:56Z</time>
      </trkpt>
      <trkpt lat="43.23924" lon="5.59717">
        <ele>364.3</ele>
        <time>2014-10-08T08:46:03Z</time>
      </trkpt>
      <trkpt lat="43.23923" lon="5.59712">
        <ele>364.7</ele>
        <time>2014-10-08T08:46:06Z</time>
      </trkpt>
      <trkpt lat="43.23921" lon="5.59707">
        <ele>363.8</ele>
        <time>2014-10-08T08:46:10Z</time>
      </trkpt>
      <trkpt lat="43.2392" lon="5.59702">
        <ele>362.7</ele>
        <time>2014-10-08T08:46:14Z</time>
      </trkpt>
      <trkpt lat="43.23919" lon="5.59698">
        <ele>361.7</ele>
        <time>2014-10-08T08:46:17Z</time>
      </trkpt>
      <trkpt lat="43.23917" lon="5.59693">
        <ele>362.2</ele>
        <time>2014-10-08T08:46:20Z</time>
      </trkpt>
      <trkpt lat="43.23916" lon="5.59689">
        <ele>363</ele>
        <time>2014-10-08T08:46:23Z</time>
      </trkpt>
      <trkpt lat="43.23914" lon="5.59684">
        <ele>364.7</ele>
        <time>2014-10-08T08:46:27Z</time>
      </trkpt>
      <trkpt lat="43.23912" lon="5.59679">
        <ele>364.7</ele>
        <time>2014-10-08T08:46:31Z</time>
      </trkpt>
      <trkpt lat="43.2391" lon="5.59674">
        <ele>365.3</ele>
        <time>2014-10-08T08:46:34Z</time>
      </trkpt>
      <trkpt lat="43.23908" lon="5.59669">
        <ele>366.6</ele>
        <time>2014-10-08T08:46:38Z</time>
      </trkpt>
      <trkpt lat="43.23907" lon="5.59665">
        <ele>367</ele>
        <time>2014-10-08T08:46:41Z</time>
      </trkpt>
      <trkpt lat="43.23905" lon="5.5966">
        <ele>361.7</ele>
        <time>2014-10-08T08:46:46Z</time>
      </trkpt>
      <trkpt lat="43.23903" lon="5.59656">
        <ele>361.5</ele>
        <time>2014-10-08T08:46:49Z</time>
      </trkpt>
      <trkpt lat="43.23901" lon="5.59651">
        <ele>361.7</ele>
        <time>2014-10-08T08:46:54Z</time>
      </trkpt>
      <trkpt lat="43.23898" lon="5.59647">
        <ele>359.7</ele>
        <time>2014-10-08T08:46:59Z</time>
      </trkpt>
      <trkpt lat="43.23898" lon="5.59646">
        <ele>360</ele>
        <time>2014-10-08T08:47:00Z</time>
      </trkpt>
    </trkseg>
  </trk>
</gpx>